Observation data for JA Ranch on 07/03/2020      Previous  Date  Next       Current Mesonet Observations  Soil Data  Daily Summary Page  Observations in Plain Language
KPD3 030500Z 17008KT 24/19 A3003 RMK A01 T02400192  RH  075%=      5-min Rain = 0
KPD3 030501Z 18008KT 24/19 A3003 RMK A01 T02420192  RH  073%=      5-min Rain = 0
KPD3 030502Z 20007KT 24/19 A3004 RMK A01 T02430194  RH  074%=      5-min Rain = 0
KPD3 030503Z 22007KT 24/20 A3004 RMK A01 T02420195  RH  075%=      5-min Rain = 0
KPD3 030504Z 23007KT 24/20 A3004 RMK A01 T02400197  RH  077%=      5-min Rain = 0
KPD3 030505Z 23007KT 24/20 A3004 RMK A01 T02370197  RH  079%=      5-min Rain = 0
KPD3 030506Z 23008KT 24/20 A3004 RMK A01 T02350197  RH  080%=      5-min Rain = 0
KPD3 030507Z 22009KT 23/20 A3004 RMK A01 T02340197  RH  080%=      5-min Rain = 0
KPD3 030508Z 23008KT 23/20 A3004 RMK A01 T02330198  RH  080%=      5-min Rain = 0
KPD3 030509Z 22008KT 23/20 A3004 RMK A01 T02330198  RH  081%=      5-min Rain = 0
KPD3 030510Z 22007KT 23/20 A3004 RMK A01 T02340195  RH  079%=      5-min Rain = 0
KPD3 030511Z 23008KT 24/20 A3004 RMK A01 T02360196  RH  078%=      5-min Rain = 0
KPD3 030512Z 23008KT 24/20 A3003 RMK A01 T02360197  RH  079%=      5-min Rain = 0
KPD3 030513Z 23008KT 24/20 A3003 RMK A01 T02360199  RH  080%=      5-min Rain = 0
KPD3 030514Z 22007KT 23/20 A3003 RMK A01 T02340199  RH  081%=      5-min Rain = 0
KPD3 030515Z 21006KT 23/20 A3003 RMK A01 T02330198  RH  081%=      5-min Rain = 0
KPD3 030516Z 21007KT 23/20 A3003 RMK A01 T02330197  RH  080%=      5-min Rain = 0
KPD3 030517Z 21007KT 23/20 A3003 RMK A01 T02340197  RH  080%=      5-min Rain = 0
KPD3 030518Z 21008KT 23/20 A3003 RMK A01 T02340198  RH  081%=      5-min Rain = 0
KPD3 030519Z 22007KT 23/20 A3003 RMK A01 T02330198  RH  080%=      5-min Rain = 0
KPD3 030520Z 22007KT 23/20 A3003 RMK A01 T02330198  RH  080%=      5-min Rain = 0
KPD3 030521Z 23009KT 23/20 A3003 RMK A01 T02330198  RH  081%=      5-min Rain = 0
KPD3 030522Z 23009KT 23/20 A3004 RMK A01 T02330198  RH  081%=      5-min Rain = 0
KPD3 030523Z 24009KT 23/20 A3004 RMK A01 T02320199  RH  082%=      5-min Rain = 0
KPD3 030524Z 24008KT 23/20 A3004 RMK A01 T02320199  RH  082%=      5-min Rain = 0
KPD3 030525Z 23008KT 23/20 A3004 RMK A01 T02310199  RH  082%=      5-min Rain = 0
KPD3 030526Z 23008KT 23/20 A3004 RMK A01 T02310199  RH  082%=      5-min Rain = 0
KPD3 030527Z 23008KT 23/20 A3004 RMK A01 T02310199  RH  082%=      5-min Rain = 0
KPD3 030528Z 22007KT 23/20 A3004 RMK A01 T02320197  RH  081%=      5-min Rain = 0
KPD3 030529Z 21007KT 23/20 A3004 RMK A01 T02320196  RH  080%=      5-min Rain = 0
KPD3 030530Z 21007KT 23/20 A3004 RMK A01 T02340196  RH  079%=      5-min Rain = 0
KPD3 030531Z 22007KT 23/20 A3003 RMK A01 T02340196  RH  079%=      5-min Rain = 0
KPD3 030532Z 22007KT 23/20 A3003 RMK A01 T02340196  RH  079%=      5-min Rain = 0
KPD3 030533Z 23008KT 23/20 A3003 RMK A01 T02340198  RH  080%=      5-min Rain = 0
KPD3 030534Z 23009KT 23/20 A3003 RMK A01 T02320198  RH  081%=      5-min Rain = 0
KPD3 030535Z 23009KT 23/20 A3003 RMK A01 T02310198  RH  082%=      5-min Rain = 0
KPD3 030536Z 24009KT 23/20 A3004 RMK A01 T02300199  RH  082%=      5-min Rain = 0
KPD3 030537Z 24008KT 23/20 A3004 RMK A01 T02300199  RH  083%=      5-min Rain = 0
KPD3 030538Z 24009KT 23/20 A3004 RMK A01 T02290201  RH  084%=      5-min Rain = 0
KPD3 030539Z 24008KT 23/20 A3004 RMK A01 T02280202  RH  085%=      5-min Rain = 0
KPD3 030540Z 25008KT 23/20 A3004 RMK A01 T02270202  RH  086%=      5-min Rain = 0
KPD3 030541Z 24008KT 23/20 A3004 RMK A01 T02270202  RH  086%=      5-min Rain = 0
KPD3 030542Z 24009KT 23/20 A3004 RMK A01 T02270202  RH  086%=      5-min Rain = 0
KPD3 030543Z 25008KT 23/20 A3004 RMK A01 T02270202  RH  086%=      5-min Rain = 0
KPD3 030544Z 25008KT 23/20 A3003 RMK A01 T02270202  RH  086%=      5-min Rain = 0
KPD3 030545Z 25008KT 23/20 A3003 RMK A01 T02270202  RH  086%=      5-min Rain = 0
KPD3 030546Z 25008KT 23/20 A3004 RMK A01 T02260201  RH  086%=      5-min Rain = 0
KPD3 030547Z 25007KT 23/20 A3004 RMK A01 T02260202  RH  086%=      5-min Rain = 0
KPD3 030548Z 25007KT 23/20 A3004 RMK A01 T02260202  RH  086%=      5-min Rain = 0
KPD3 030549Z 25006KT 23/20 A3004 RMK A01 T02250201  RH  086%=      5-min Rain = 0
KPD3 030550Z 25006KT 23/20 A3004 RMK A01 T02250201  RH  086%=      5-min Rain = 0
KPD3 030551Z 25005KT 23/20 A3004 RMK A01 T02250200  RH  086%=      5-min Rain = 0
KPD3 030552Z 24005KT 23/20 A3004 RMK A01 T02260200  RH  085%=      5-min Rain = 0
KPD3 030553Z 24005KT 23/20 A3004 RMK A01 T02260200  RH  085%=      5-min Rain = 0
KPD3 030554Z 24005KT 23/20 A3004 RMK A01 T02270199  RH  085%=      5-min Rain = 0
KPD3 030555Z 24005KT 23/20 A3004 RMK A01 T02270200  RH  085%=      5-min Rain = 0
KPD3 030556Z 23005KT 23/20 A3004 RMK A01 T02280199  RH  084%=      5-min Rain = 0
KPD3 030557Z 24006KT 23/20 A3004 RMK A01 T02280200  RH  084%=      5-min Rain = 0
KPD3 030558Z 24007KT 23/20 A3004 RMK A01 T02280199  RH  084%=      5-min Rain = 0
KPD3 030559Z 25007KT 23/20 A3003 RMK A01 T02280200  RH  084%=      5-min Rain = 0
KPD3 030600Z 25009KT 23/20 A3003 RMK A01 T02290198  RH  083%=      5-min Rain = 0
KPD3 030601Z 25009KT 23/20 A3003 RMK A01 T02300198  RH  082%=      5-min Rain = 0
KPD3 030602Z 25009KT 23/20 A3003 RMK A01 T02300198  RH  082%=      5-min Rain = 0
KPD3 030603Z 25009KT 23/20 A3003 RMK A01 T02300199  RH  083%=      5-min Rain = 0
KPD3 030604Z 25009KT 23/20 A3003 RMK A01 T02290199  RH  083%=      5-min Rain = 0
KPD3 030605Z 24008KT 23/20 A3003 RMK A01 T02290199  RH  083%=      5-min Rain = 0
KPD3 030606Z 24009KT 23/20 A3003 RMK A01 T02290198  RH  083%=      5-min Rain = 0
KPD3 030607Z 24009KT 23/20 A3003 RMK A01 T02290198  RH  083%=      5-min Rain = 0
KPD3 030608Z 24008KT 23/20 A3003 RMK A01 T02300197  RH  082%=      5-min Rain = 0
KPD3 030609Z 24007KT 23/20 A3003 RMK A01 T02320197  RH  081%=      5-min Rain = 0
KPD3 030610Z 23007KT 23/20 A3003 RMK A01 T02320198  RH  081%=      5-min Rain = 0
KPD3 030611Z 23007KT 23/20 A3003 RMK A01 T02330199  RH  081%=      5-min Rain = 0
KPD3 030612Z 22006KT 23/20 A3003 RMK A01 T02320198  RH  081%=      5-min Rain = 0
KPD3 030613Z 22006KT 23/20 A3004 RMK A01 T02320198  RH  081%=      5-min Rain = 0
KPD3 030614Z 22005KT 23/20 A3004 RMK A01 T02320196  RH  080%=      5-min Rain = 0
KPD3 030615Z 23005KT 23/20 A3004 RMK A01 T02330197  RH  080%=      5-min Rain = 0
KPD3 030616Z 24005KT 23/20 A3004 RMK A01 T02320196  RH  080%=      5-min Rain = 0
KPD3 030617Z 24006KT 23/20 A3004 RMK A01 T02330197  RH  080%=      5-min Rain = 0
KPD3 030618Z 25006KT 23/20 A3004 RMK A01 T02330199  RH  081%=      5-min Rain = 0
KPD3 030619Z 25006KT 23/20 A3004 RMK A01 T02320199  RH  082%=      5-min Rain = 0
KPD3 030620Z 25006KT 23/20 A3004 RMK A01 T02310199  RH  082%=      5-min Rain = 0
KPD3 030621Z 25007KT 23/20 A3004 RMK A01 T02310200  RH  082%=      5-min Rain = 0
KPD3 030622Z 25007KT 23/20 A3004 RMK A01 T02310199  RH  083%=      5-min Rain = 0
KPD3 030623Z 25006KT 23/20 A3004 RMK A01 T02300199  RH  083%=      5-min Rain = 0
KPD3 030624Z 26006KT 23/20 A3003 RMK A01 T02300200  RH  083%=      5-min Rain = 0
KPD3 030625Z 25006KT 23/20 A3003 RMK A01 T02300200  RH  083%=      5-min Rain = 0
KPD3 030626Z 25007KT 23/20 A3003 RMK A01 T02300200  RH  083%=      5-min Rain = 0
KPD3 030627Z 25007KT 23/20 A3003 RMK A01 T02290199  RH  083%=      5-min Rain = 0
KPD3 030628Z 25006KT 23/20 A3003 RMK A01 T02290199  RH  083%=      5-min Rain = 0
KPD3 030629Z 25006KT 23/20 A3003 RMK A01 T02290199  RH  083%=      5-min Rain = 0
KPD3 030630Z 25007KT 23/20 A3003 RMK A01 T02290199  RH  083%=      5-min Rain = 0
KPD3 030631Z 25007KT 23/20 A3003 RMK A01 T02290200  RH  083%=      5-min Rain = 0
KPD3 030632Z 25007KT 23/20 A3003 RMK A01 T02290200  RH  084%=      5-min Rain = 0
KPD3 030633Z 24007KT 23/20 A3003 RMK A01 T02280200  RH  084%=      5-min Rain = 0
KPD3 030634Z 24007KT 23/20 A3003 RMK A01 T02280200  RH  084%=      5-min Rain = 0
KPD3 030635Z 24007KT 23/20 A3003 RMK A01 T02270199  RH  084%=      5-min Rain = 0
KPD3 030636Z 24007KT 23/20 A3003 RMK A01 T02270200  RH  085%=      5-min Rain = 0
KPD3 030637Z 24006KT 23/20 A3003 RMK A01 T02270200  RH  085%=      5-min Rain = 0
KPD3 030638Z 23007KT 23/20 A3002 RMK A01 T02270201  RH  085%=      5-min Rain = 0
KPD3 030639Z 23007KT 23/20 A3002 RMK A01 T02260200  RH  085%=      5-min Rain = 0
KPD3 030640Z 23007KT 23/20 A3002 RMK A01 T02260200  RH  085%=      5-min Rain = 0
KPD3 030641Z 22007KT 23/20 A3002 RMK A01 T02270198  RH  084%=      5-min Rain = 0
KPD3 030642Z 22006KT 23/20 A3002 RMK A01 T02280199  RH  084%=      5-min Rain = 0
KPD3 030643Z 21005KT 23/20 A3002 RMK A01 T02280198  RH  083%=      5-min Rain = 0
KPD3 030644Z 21005KT 23/20 A3002 RMK A01 T02280198  RH  083%=      5-min Rain = 0
KPD3 030645Z 20005KT 23/20 A3002 RMK A01 T02280197  RH  083%=      5-min Rain = 0
KPD3 030646Z 20005KT 23/20 A3002 RMK A01 T02280197  RH  082%=      5-min Rain = 0
KPD3 030647Z 20005KT 23/20 A3002 RMK A01 T02290197  RH  082%=      5-min Rain = 0
KPD3 030648Z 20005KT 23/20 A3002 RMK A01 T02290196  RH  082%=      5-min Rain = 0
KPD3 030649Z 20005KT 23/20 A3002 RMK A01 T02300196  RH  081%=      5-min Rain = 0
KPD3 030650Z 20004KT 23/20 A3002 RMK A01 T02300196  RH  081%=      5-min Rain = 0
KPD3 030651Z 20004KT 23/20 A3002 RMK A01 T02310196  RH  081%=      5-min Rain = 0
KPD3 030652Z 20004KT 23/20 A3002 RMK A01 T02310196  RH  081%=      5-min Rain = 0
KPD3 030653Z 20004KT 23/20 A3002 RMK A01 T02310196  RH  081%=      5-min Rain = 0
KPD3 030654Z 20004KT 23/20 A3002 RMK A01 T02310196  RH  081%=      5-min Rain = 0
KPD3 030655Z 21004KT 23/20 A3002 RMK A01 T02310196  RH  081%=      5-min Rain = 0
KPD3 030656Z 20004KT 23/20 A3002 RMK A01 T02300197  RH  081%=      5-min Rain = 0
KPD3 030657Z 20004KT 23/20 A3002 RMK A01 T02300197  RH  082%=      5-min Rain = 0
KPD3 030658Z 20004KT 23/20 A3002 RMK A01 T02290198  RH  082%=      5-min Rain = 0
KPD3 030659Z 21004KT 23/20 A3002 RMK A01 T02290198  RH  083%=      5-min Rain = 0
KPD3 030700Z 21004KT 23/20 A3002 RMK A01 T02280197  RH  083%=      5-min Rain = 0
KPD3 030701Z 21004KT 23/20 A3002 RMK A01 T02280198  RH  083%=      5-min Rain = 0
KPD3 030702Z 21004KT 23/20 A3002 RMK A01 T02270198  RH  084%=      5-min Rain = 0
KPD3 030703Z 22005KT 23/20 A3001 RMK A01 T02270199  RH  084%=      5-min Rain = 0
KPD3 030704Z 22005KT 23/20 A3001 RMK A01 T02260199  RH  085%=      5-min Rain = 0
KPD3 030705Z 23006KT 23/20 A3001 RMK A01 T02250199  RH  085%=      5-min Rain = 0
KPD3 030706Z 23006KT 22/20 A3001 RMK A01 T02240199  RH  086%=      5-min Rain = 0
KPD3 030707Z 23007KT 22/20 A3001 RMK A01 T02240199  RH  086%=      5-min Rain = 0
KPD3 030708Z 23007KT 22/20 A3001 RMK A01 T02230199  RH  086%=      5-min Rain = 0
KPD3 030709Z 23007KT 22/20 A3001 RMK A01 T02230199  RH  086%=      5-min Rain = 0
KPD3 030710Z 23008KT 22/20 A3001 RMK A01 T02230199  RH  086%=      5-min Rain = 0
KPD3 030711Z 22008KT 22/20 A3001 RMK A01 T02230198  RH  086%=      5-min Rain = 0
KPD3 030712Z 23008KT 22/20 A3001 RMK A01 T02230196  RH  085%=      5-min Rain = 0
KPD3 030713Z 23008KT 22/20 A3001 RMK A01 T02240196  RH  085%=      5-min Rain = 0
KPD3 030714Z 23008KT 22/20 A3001 RMK A01 T02240196  RH  084%=      5-min Rain = 0
KPD3 030715Z 23008KT 23/20 A3001 RMK A01 T02250196  RH  084%=      5-min Rain = 0
KPD3 030716Z 24007KT 23/20 A30 RMK A01 T02250196  RH  084%=      5-min Rain = 0
KPD3 030717Z 24008KT 23/20 A30 RMK A01 T02250196  RH  083%=      5-min Rain = 0
KPD3 030718Z 24007KT 23/20 A30 RMK A01 T02250196  RH  083%=      5-min Rain = 0
KPD3 030719Z 24007KT 23/20 A30 RMK A01 T02260196  RH  083%=      5-min Rain = 0
KPD3 030720Z 25007KT 23/20 A30 RMK A01 T02260196  RH  084%=      5-min Rain = 0
KPD3 030721Z 26007KT 23/20 A30 RMK A01 T02260197  RH  084%=      5-min Rain = 0
KPD3 030722Z 28007KT 23/20 A30 RMK A01 T02250198  RH  084%=      5-min Rain = 0
KPD3 030723Z 29007KT 22/20 A30 RMK A01 T02240199  RH  085%=      5-min Rain = 0
KPD3 030724Z 29008KT 22/20 A30 RMK A01 T02230199  RH  086%=      5-min Rain = 0
KPD3 030725Z 29008KT 22/20 A30 RMK A01 T02230199  RH  086%=      5-min Rain = 0
KPD3 030726Z 28008KT 22/20 A30 RMK A01 T02230198  RH  086%=      5-min Rain = 0
KPD3 030727Z 28008KT 22/20 A2999 RMK A01 T02240197  RH  085%=      5-min Rain = 0
KPD3 030728Z 28007KT 23/20 A2999 RMK A01 T02250197  RH  084%=      5-min Rain = 0
KPD3 030729Z 27008KT 23/20 A2999 RMK A01 T02260197  RH  083%=      5-min Rain = 0
KPD3 030730Z 27008KT 23/20 A2999 RMK A01 T02270196  RH  083%=      5-min Rain = 0
KPD3 030731Z 27008KT 23/20 A2999 RMK A01 T02290196  RH  082%=      5-min Rain = 0
KPD3 030732Z 28008KT 23/20 A2999 RMK A01 T02300196  RH  081%=      5-min Rain = 0
KPD3 030733Z 28008KT 23/20 A2999 RMK A01 T02300197  RH  082%=      5-min Rain = 0
KPD3 030734Z 29007KT 23/20 A2999 RMK A01 T02300197  RH  082%=      5-min Rain = 0
KPD3 030735Z 29007KT 23/20 A2999 RMK A01 T02300197  RH  082%=      5-min Rain = 0
KPD3 030736Z 29007KT 23/20 A2999 RMK A01 T02290196  RH  082%=      5-min Rain = 0
KPD3 030737Z 29005KT 23/20 A2999 RMK A01 T02280195  RH  082%=      5-min Rain = 0
KPD3 030738Z 29005KT 23/20 A2999 RMK A01 T02290195  RH  081%=      5-min Rain = 0
KPD3 030739Z 30004KT 23/20 A2999 RMK A01 T02290195  RH  081%=      5-min Rain = 0
KPD3 030740Z 31003KT 23/20 A2999 RMK A01 T02290195  RH  081%=      5-min Rain = 0
KPD3 030741Z 36002KT 23/20 A2999 RMK A01 T02290195  RH  081%=      5-min Rain = 0
KPD3 030742Z 04004KT 23/20 A30 RMK A01 T02290196  RH  082%=      5-min Rain = 0
KPD3 030743Z 05006KT 23/20 A30 RMK A01 T02280197  RH  083%=      5-min Rain = 0
KPD3 030744Z 06007KT 23/20 A30 RMK A01 T02260197  RH  084%=      5-min Rain = 0
KPD3 030745Z 07008KT 23/20 A30 RMK A01 T02250198  RH  085%=      5-min Rain = 0
KPD3 030746Z 07009KT 22/20 A30 RMK A01 T02240198  RH  085%=      5-min Rain = 0
KPD3 030747Z 06011KT 22/20 A30 RMK A01 T02240198  RH  085%=      5-min Rain = 0
KPD3 030748Z 06009KT 23/20 A30 RMK A01 T02250196  RH  084%=      5-min Rain = 0
KPD3 030749Z 06008KT 23/20 A30 RMK A01 T02270197  RH  083%=      5-min Rain = 0
KPD3 030750Z 06007KT 23/20 A3001 RMK A01 T02280196  RH  082%=      5-min Rain = 0
KPD3 030751Z 05006KT 23/20 A3001 RMK A01 T02290196  RH  082%=      5-min Rain = 0
KPD3 030752Z 04005KT 23/20 A3001 RMK A01 T02300196  RH  081%=      5-min Rain = 0
KPD3 030753Z 04004KT 23/20 A3001 RMK A01 T02300196  RH  081%=      5-min Rain = 0
KPD3 030754Z 05004KT 23/20 A3001 RMK A01 T02300197  RH  082%=      5-min Rain = 0
KPD3 030755Z 06006KT 23/20 A3001 RMK A01 T02290197  RH  083%=      5-min Rain = 0
KPD3 030756Z 06006KT 23/20 A3001 RMK A01 T02270197  RH  083%=      5-min Rain = 0
KPD3 030757Z 06006KT 23/20 A3001 RMK A01 T02260198  RH  084%=      5-min Rain = 0
KPD3 030758Z 05005KT 23/20 A3001 RMK A01 T02250197  RH  085%=      5-min Rain = 0
KPD3 030759Z 05005KT 22/20 A3001 RMK A01 T02240198  RH  085%=      5-min Rain = 0
KPD3 030800Z 10002KT 23/20 A3001 RMK A01 T02250196  RH  084%=      5-min Rain = 0
KPD3 030801Z 06001KT 23/19 A3001 RMK A01 T02260193  RH  082%=      5-min Rain = 0
KPD3 030802Z 04002KT 23/20 A3001 RMK A01 T02280195  RH  082%=      5-min Rain = 0
KPD3 030803Z 04002KT 23/20 A3001 RMK A01 T02290197  RH  082%=      5-min Rain = 0
KPD3 030804Z 04002KT 23/20 A3001 RMK A01 T02280198  RH  083%=      5-min Rain = 0
KPD3 030805Z 04004KT 23/20 A3001 RMK A01 T02260198  RH  084%=      5-min Rain = 0
KPD3 030806Z 05004KT 22/20 A3001 RMK A01 T02240199  RH  085%=      5-min Rain = 0
KPD3 030807Z 05004KT 22/20 A30 RMK A01 T02230199  RH  086%=      5-min Rain = 0
KPD3 030808Z 04004KT 22/20 A30 RMK A01 T02220199  RH  087%=      5-min Rain = 0
KPD3 030809Z 02004KT 22/20 A30 RMK A01 T02210199  RH  087%=      5-min Rain = 0
KPD3 030810Z 01003KT 22/20 A30 RMK A01 T02200199  RH  088%=      5-min Rain = 0
KPD3 030811Z 01004KT 22/20 A30 RMK A01 T02200199  RH  088%=      5-min Rain = 0
KPD3 030812Z 02004KT 22/20 A30 RMK A01 T02190199  RH  088%=      5-min Rain = 0
KPD3 030813Z 03003KT 22/20 A30 RMK A01 T02190198  RH  088%=      5-min Rain = 0
KPD3 030814Z 05002KT 22/20 A30 RMK A01 T02190199  RH  088%=      5-min Rain = 0
KPD3 030815Z 05001KT 22/20 A30 RMK A01 T02190199  RH  088%=      5-min Rain = 0
KPD3 030816Z 04001KT 22/20 A30 RMK A01 T02190199  RH  088%=      5-min Rain = 0
KPD3 030817Z 07001KT 22/20 A30 RMK A01 T02190198  RH  088%=      5-min Rain = 0
KPD3 030818Z 05001KT 22/20 A30 RMK A01 T02190198  RH  088%=      5-min Rain = 0
KPD3 030819Z 05001KT 22/20 A30 RMK A01 T02190198  RH  088%=      5-min Rain = 0
KPD3 030820Z 05001KT 22/20 A30 RMK A01 T02190198  RH  088%=      5-min Rain = 0
KPD3 030821Z 05001KT 22/20 A30 RMK A01 T02190198  RH  088%=      5-min Rain = 0
KPD3 030822Z 05001KT 22/20 A30 RMK A01 T02190198  RH  088%=      5-min Rain = 0
KPD3 030823Z 05001KT 22/20 A30 RMK A01 T02190199  RH  088%=      5-min Rain = 0
KPD3 030824Z 05001KT 22/20 A30 RMK A01 T02190199  RH  088%=      5-min Rain = 0
KPD3 030825Z 05000KT 22/20 A30 RMK A01 T02190199  RH  088%=      5-min Rain = 0
KPD3 030826Z 05000KT 22/20 A30 RMK A01 T02190199  RH  088%=      5-min Rain = 0
KPD3 030827Z 05000KT 22/20 A30 RMK A01 T02190199  RH  088%=      5-min Rain = 0
KPD3 030828Z 00000KT 22/20 A30 RMK A01 T02180198  RH  088%=      5-min Rain = 0
KPD3 030829Z 00000KT 22/20 A2999 RMK A01 T02170198  RH  089%=      5-min Rain = 0
KPD3 030830Z 00000KT 22/20 A2999 RMK A01 T02170198  RH  089%=      5-min Rain = 0
KPD3 030831Z 00000KT 22/20 A2999 RMK A01 T02160197  RH  089%=      5-min Rain = 0
KPD3 030832Z 00000KT 22/20 A2999 RMK A01 T02150197  RH  089%=      5-min Rain = 0
KPD3 030833Z 00000KT 21/20 A2999 RMK A01 T02140196  RH  090%=      5-min Rain = 0
KPD3 030834Z 00000KT 21/20 A2999 RMK A01 T02130196  RH  090%=      5-min Rain = 0
KPD3 030835Z 00000KT 21/20 A2999 RMK A01 T02120197  RH  091%=      5-min Rain = 0
KPD3 030836Z 05000KT 21/20 A2999 RMK A01 T02120197  RH  092%=      5-min Rain = 0
KPD3 030837Z 00000KT 21/20 A2999 RMK A01 T02110197  RH  092%=      5-min Rain = 0
KPD3 030838Z 00000KT 21/20 A2999 RMK A01 T02100196  RH  092%=      5-min Rain = 0
KPD3 030839Z 00000KT 21/20 A2999 RMK A01 T02100196  RH  092%=      5-min Rain = 0
KPD3 030840Z 00000KT 21/20 A2999 RMK A01 T02090196  RH  092%=      5-min Rain = 0
KPD3 030841Z 00000KT 21/20 A30 RMK A01 T02090196  RH  092%=      5-min Rain = 0
KPD3 030842Z 05000KT 21/20 A30 RMK A01 T02090196  RH  092%=      5-min Rain = 0
KPD3 030843Z 05000KT 21/20 A30 RMK A01 T02090197  RH  093%=      5-min Rain = 0
KPD3 030844Z 05001KT 21/20 A30 RMK A01 T02090197  RH  093%=      5-min Rain = 0
KPD3 030845Z 05001KT 21/20 A30 RMK A01 T02090198  RH  093%=      5-min Rain = 0
KPD3 030846Z 05001KT 21/20 A30 RMK A01 T02090198  RH  093%=      5-min Rain = 0
KPD3 030847Z 05002KT 21/20 A30 RMK A01 T02100199  RH  094%=      5-min Rain = 0
KPD3 030848Z 05002KT 21/20 A30 RMK A01 T02100199  RH  094%=      5-min Rain = 0
KPD3 030849Z 05002KT 21/20 A30 RMK A01 T02100199  RH  094%=      5-min Rain = 0
KPD3 030850Z 05002KT 21/20 A30 RMK A01 T02100200  RH  094%=      5-min Rain = 0
KPD3 030851Z 06002KT 21/20 A30 RMK A01 T02100200  RH  094%=      5-min Rain = 0
KPD3 030852Z 06003KT 21/20 A30 RMK A01 T02090199  RH  094%=      5-min Rain = 0
KPD3 030853Z 07003KT 21/20 A30 RMK A01 T02090199  RH  094%=      5-min Rain = 0
KPD3 030854Z 07003KT 21/20 A30 RMK A01 T02090199  RH  094%=      5-min Rain = 0
KPD3 030855Z 08003KT 21/20 A3001 RMK A01 T02090199  RH  094%=      5-min Rain = 0
KPD3 030856Z 08003KT 21/20 A3001 RMK A01 T02090198  RH  094%=      5-min Rain = 0
KPD3 030857Z 08002KT 21/20 A3001 RMK A01 T02090198  RH  094%=      5-min Rain = 0
KPD3 030858Z 08002KT 21/20 A3001 RMK A01 T02080198  RH  094%=      5-min Rain = 0
KPD3 030859Z 08001KT 21/20 A3001 RMK A01 T02090198  RH  094%=      5-min Rain = 0
KPD3 030900Z 08000KT 21/20 A3001 RMK A01 T02080198  RH  094%=      5-min Rain = 0
KPD3 030901Z 00000KT 21/20 A3001 RMK A01 T02090199  RH  094%=      5-min Rain = 0
KPD3 030902Z 33001KT 21/20 A3001 RMK A01 T02080198  RH  094%=      5-min Rain = 0
KPD3 030903Z 33001KT 21/20 A3001 RMK A01 T02070197  RH  094%=      5-min Rain = 0
KPD3 030904Z 33002KT 21/20 A3001 RMK A01 T02070198  RH  094%=      5-min Rain = 0
KPD3 030905Z 33002KT 21/20 A3001 RMK A01 T02070198  RH  095%=      5-min Rain = 0
KPD3 030906Z 33002KT 21/20 A3001 RMK A01 T02070199  RH  095%=      5-min Rain = 0
KPD3 030907Z 32002KT 21/20 A3001 RMK A01 T02070199  RH  095%=      5-min Rain = 0
KPD3 030908Z 33003KT 21/20 A3001 RMK A01 T02070199  RH  095%=      5-min Rain = 0
KPD3 030909Z 33003KT 21/20 A3001 RMK A01 T02060199  RH  095%=      5-min Rain = 0
KPD3 030910Z 33003KT 21/20 A3001 RMK A01 T02060199  RH  096%=      5-min Rain = 0
KPD3 030911Z 34003KT 21/20 A3001 RMK A01 T02060199  RH  096%=      5-min Rain = 0
KPD3 030912Z 34003KT 21/20 A3001 RMK A01 T02060199  RH  096%=      5-min Rain = 0
KPD3 030913Z 34002KT 21/20 A3001 RMK A01 T02050198  RH  096%=      5-min Rain = 0
KPD3 030914Z 35002KT 21/20 A3001 RMK A01 T02050198  RH  096%=      5-min Rain = 0
KPD3 030915Z 35002KT 21/20 A3001 RMK A01 T02050198  RH  096%=      5-min Rain = 0
KPD3 030916Z 00002KT 21/20 A3001 RMK A01 T02060199  RH  096%=      5-min Rain = 0
KPD3 030917Z 00002KT 21/20 A3001 RMK A01 T02050198  RH  096%=      5-min Rain = 0
KPD3 030918Z 00002KT 21/20 A3001 RMK A01 T02060199  RH  096%=      5-min Rain = 0
KPD3 030919Z 00002KT 21/20 A3001 RMK A01 T02060198  RH  096%=      5-min Rain = 0
KPD3 030920Z 01002KT 21/20 A3001 RMK A01 T02060199  RH  096%=      5-min Rain = 0
KPD3 030921Z 01002KT 21/20 A3001 RMK A01 T02060199  RH  096%=      5-min Rain = 0
KPD3 030922Z 01003KT 21/20 A3001 RMK A01 T02060199  RH  096%=      5-min Rain = 0
KPD3 030923Z 02003KT 21/20 A3001 RMK A01 T02060199  RH  096%=      5-min Rain = 0
KPD3 030924Z 02003KT 21/20 A3002 RMK A01 T02060199  RH  096%=      5-min Rain = 0
KPD3 030925Z 01003KT 21/20 A3002 RMK A01 T02070199  RH  096%=      5-min Rain = 0
KPD3 030926Z 02004KT 21/20 A3002 RMK A01 T02070200  RH  096%=      5-min Rain = 0
KPD3 030927Z 02003KT 21/20 A3002 RMK A01 T02080201  RH  096%=      5-min Rain = 0
KPD3 030928Z 03004KT 21/20 A3002 RMK A01 T02080202  RH  096%=      5-min Rain = 0
KPD3 030929Z 03004KT 21/20 A3002 RMK A01 T02080202  RH  096%=      5-min Rain = 0
KPD3 030930Z 03004KT 21/20 A3002 RMK A01 T02080202  RH  096%=      5-min Rain = 0
KPD3 030931Z 03004KT 21/20 A3002 RMK A01 T02090203  RH  096%=      5-min Rain = 0
KPD3 030932Z 03004KT 21/20 A3002 RMK A01 T02090203  RH  096%=      5-min Rain = 0
KPD3 030933Z 03005KT 21/20 A3002 RMK A01 T02090203  RH  096%=      5-min Rain = 0
KPD3 030934Z 02005KT 21/20 A3002 RMK A01 T02100203  RH  096%=      5-min Rain = 0
KPD3 030935Z 02005KT 21/20 A3002 RMK A01 T02100203  RH  096%=      5-min Rain = 0
KPD3 030936Z 02005KT 21/20 A3003 RMK A01 T02100203  RH  096%=      5-min Rain = 0
KPD3 030937Z 02005KT 21/20 A3003 RMK A01 T02110203  RH  096%=      5-min Rain = 0
KPD3 030938Z 02005KT 21/20 A3003 RMK A01 T02110204  RH  095%=      5-min Rain = 0
KPD3 030939Z 01006KT 21/20 A3003 RMK A01 T02110203  RH  095%=      5-min Rain = 0
KPD3 030940Z 01006KT 21/20 A3003 RMK A01 T02110203  RH  095%=      5-min Rain = 0
KPD3 030941Z 00005KT 21/20 A3003 RMK A01 T02110203  RH  095%=      5-min Rain = 0
KPD3 030942Z 00005KT 21/20 A3003 RMK A01 T02110203  RH  095%=      5-min Rain = 0
KPD3 030943Z 00005KT 21/20 A3003 RMK A01 T02110203  RH  095%=      5-min Rain = 0
KPD3 030944Z 01005KT 21/20 A3003 RMK A01 T02110203  RH  095%=      5-min Rain = 0
KPD3 030945Z 01006KT 21/20 A3003 RMK A01 T02110203  RH  095%=      5-min Rain = 0
KPD3 030946Z 01006KT 21/20 A3003 RMK A01 T02120203  RH  095%=      5-min Rain = 0
KPD3 030947Z 01006KT 21/20 A3003 RMK A01 T02120202  RH  094%=      5-min Rain = 0
KPD3 030948Z 01005KT 21/20 A3003 RMK A01 T02120202  RH  094%=      5-min Rain = 0
KPD3 030949Z 01005KT 21/20 A3003 RMK A01 T02130202  RH  094%=      5-min Rain = 0
KPD3 030950Z 01005KT 21/20 A3003 RMK A01 T02130202  RH  093%=      5-min Rain = 0
KPD3 030951Z 00004KT 21/20 A3003 RMK A01 T02130202  RH  093%=      5-min Rain = 0
KPD3 030952Z 36004KT 21/20 A3003 RMK A01 T02130202  RH  093%=      5-min Rain = 0
KPD3 030953Z 35004KT 21/20 A3003 RMK A01 T02130202  RH  093%=      5-min Rain = 0
KPD3 030954Z 35004KT 21/20 A3003 RMK A01 T02130202  RH  093%=      5-min Rain = 0
KPD3 030955Z 34005KT 21/20 A3003 RMK A01 T02130202  RH  093%=      5-min Rain = 0
KPD3 030956Z 34005KT 21/20 A3003 RMK A01 T02130202  RH  093%=      5-min Rain = 0
KPD3 030957Z 34005KT 21/20 A3003 RMK A01 T02130202  RH  093%=      5-min Rain = 0
KPD3 030958Z 34005KT 21/20 A3003 RMK A01 T02130202  RH  093%=      5-min Rain = 0
KPD3 030959Z 34004KT 21/20 A3003 RMK A01 T02130202  RH  093%=      5-min Rain = 0
KPD3 031000Z 34004KT 21/20 A3003 RMK A01 T02130202  RH  093%=      5-min Rain = 0
KPD3 031001Z 33004KT 21/20 A3003 RMK A01 T02130201  RH  093%=      5-min Rain = 0
KPD3 031002Z 33004KT 21/20 A3003 RMK A01 T02130202  RH  093%=      5-min Rain = 0
KPD3 031003Z 32005KT 21/20 A3003 RMK A01 T02130202  RH  093%=      5-min Rain = 0
KPD3 031004Z 32005KT 21/20 A3003 RMK A01 T02130201  RH  093%=      5-min Rain = 0
KPD3 031005Z 33005KT 21/20 A3003 RMK A01 T02120201  RH  093%=      5-min Rain = 0
KPD3 031006Z 33005KT 21/20 A3003 RMK A01 T02120201  RH  093%=      5-min Rain = 0
KPD3 031007Z 33005KT 21/20 A3003 RMK A01 T02120201  RH  094%=      5-min Rain = 0
KPD3 031008Z 32005KT 21/20 A3003 RMK A01 T02120201  RH  094%=      5-min Rain = 0
KPD3 031009Z 32005KT 21/20 A3003 RMK A01 T02120201  RH  094%=      5-min Rain = 0
KPD3 031010Z 32005KT 21/20 A3003 RMK A01 T02110201  RH  094%=      5-min Rain = 0
KPD3 031011Z 32005KT 21/20 A3003 RMK A01 T02120201  RH  094%=      5-min Rain = 0
KPD3 031012Z 33005KT 21/20 A3003 RMK A01 T02110201  RH  094%=      5-min Rain = 0
KPD3 031013Z 33005KT 21/20 A3003 RMK A01 T02120201  RH  094%=      5-min Rain = 0
KPD3 031014Z 33005KT 21/20 A3003 RMK A01 T02110201  RH  094%=      5-min Rain = 0
KPD3 031015Z 33004KT 21/20 A3003 RMK A01 T02120201  RH  093%=      5-min Rain = 0
KPD3 031016Z 32004KT 21/20 A3003 RMK A01 T02120201  RH  093%=      5-min Rain = 0
KPD3 031017Z 31005KT 21/20 A3003 RMK A01 T02120201  RH  093%=      5-min Rain = 0
KPD3 031018Z 31005KT 21/20 A3003 RMK A01 T02120201  RH  093%=      5-min Rain = 0
KPD3 031019Z 31005KT 21/20 A3003 RMK A01 T02120201  RH  093%=      5-min Rain = 0
KPD3 031020Z 30005KT 21/20 A3003 RMK A01 T02120201  RH  093%=      5-min Rain = 0
KPD3 031021Z 30005KT 21/20 A3003 RMK A01 T02120201  RH  093%=      5-min Rain = 0
KPD3 031022Z 31005KT 21/20 A3003 RMK A01 T02120200  RH  093%=      5-min Rain = 0
KPD3 031023Z 31005KT 21/20 A3003 RMK A01 T02120200  RH  093%=      5-min Rain = 0
KPD3 031024Z 31004KT 21/20 A3003 RMK A01 T02120200  RH  093%=      5-min Rain = 0
KPD3 031025Z 31004KT 21/20 A3003 RMK A01 T02120200  RH  093%=      5-min Rain = 0
KPD3 031026Z 31004KT 21/20 A3003 RMK A01 T02120200  RH  093%=      5-min Rain = 0
KPD3 031027Z 31004KT 21/20 A3003 RMK A01 T02120199  RH  092%=      5-min Rain = 0
KPD3 031028Z 32003KT 21/20 A3004 RMK A01 T02120199  RH  092%=      5-min Rain = 0
KPD3 031029Z 32003KT 21/20 A3004 RMK A01 T02120199  RH  092%=      5-min Rain = 0
KPD3 031030Z 32003KT 21/20 A3004 RMK A01 T02120198  RH  092%=      5-min Rain = 0
KPD3 031031Z 32004KT 21/20 A3004 RMK A01 T02120199  RH  092%=      5-min Rain = 0
KPD3 031032Z 33004KT 21/20 A3004 RMK A01 T02120198  RH  092%=      5-min Rain = 0
KPD3 031033Z 33003KT 21/20 A3004 RMK A01 T02120198  RH  092%=      5-min Rain = 0
KPD3 031034Z 33003KT 21/20 A3004 RMK A01 T02130198  RH  092%=      5-min Rain = 0
KPD3 031035Z 32004KT 21/20 A3004 RMK A01 T02130198  RH  091%=      5-min Rain = 0
KPD3 031036Z 32004KT 21/20 A3004 RMK A01 T02130198  RH  091%=      5-min Rain = 0
KPD3 031037Z 31004KT 21/20 A3004 RMK A01 T02130198  RH  091%=      5-min Rain = 0
KPD3 031038Z 31004KT 21/20 A3004 RMK A01 T02130198  RH  092%=      5-min Rain = 0
KPD3 031039Z 31004KT 21/20 A3004 RMK A01 T02110198  RH  092%=      5-min Rain = 0
KPD3 031040Z 31005KT 21/20 A3004 RMK A01 T02110197  RH  092%=      5-min Rain = 0
KPD3 031041Z 32005KT 21/20 A3004 RMK A01 T02100197  RH  092%=      5-min Rain = 0
KPD3 031042Z 32006KT 21/20 A3004 RMK A01 T02090197  RH  093%=      5-min Rain = 0
KPD3 031043Z 33006KT 21/20 A3004 RMK A01 T02090197  RH  093%=      5-min Rain = 0
KPD3 031044Z 33006KT 21/20 A3004 RMK A01 T02090197  RH  093%=      5-min Rain = 0
KPD3 031045Z 33005KT 21/20 A3004 RMK A01 T02090197  RH  093%=      5-min Rain = 0
KPD3 031046Z 32005KT 21/20 A3004 RMK A01 T02080197  RH  093%=      5-min Rain = 0
KPD3 031047Z 32005KT 21/20 A3004 RMK A01 T02080197  RH  093%=      5-min Rain = 0
KPD3 031048Z 31005KT 21/20 A3004 RMK A01 T02080198  RH  094%=      5-min Rain = 0
KPD3 031049Z 31005KT 21/20 A3004 RMK A01 T02080198  RH  094%=      5-min Rain = 0
KPD3 031050Z 31005KT 21/20 A3004 RMK A01 T02080198  RH  094%=      5-min Rain = 0
KPD3 031051Z 31005KT 21/20 A3004 RMK A01 T02080198  RH  094%=      5-min Rain = 0
KPD3 031052Z 31004KT 21/20 A3004 RMK A01 T02080198  RH  094%=      5-min Rain = 0
KPD3 031053Z 31005KT 21/20 A3004 RMK A01 T02080198  RH  094%=      5-min Rain = 0
KPD3 031054Z 31005KT 21/20 A3004 RMK A01 T02080197  RH  094%=      5-min Rain = 0
KPD3 031055Z 31005KT 21/20 A3004 RMK A01 T02080197  RH  094%=      5-min Rain = 0
KPD3 031056Z 31004KT 21/20 A3004 RMK A01 T02070197  RH  094%=      5-min Rain = 0
KPD3 031057Z 31004KT 21/20 A3004 RMK A01 T02070196  RH  094%=      5-min Rain = 0
KPD3 031058Z 31004KT 21/20 A3004 RMK A01 T02060196  RH  094%=      5-min Rain = 0
KPD3 031059Z 31005KT 21/20 A3004 RMK A01 T02060196  RH  094%=      5-min Rain = 0
KPD3 031100Z 31005KT 21/20 A3004 RMK A01 T02060196  RH  094%=      5-min Rain = 0
KPD3 031101Z 31005KT 21/20 A3004 RMK A01 T02060196  RH  094%=      5-min Rain = 0
KPD3 031102Z 30005KT 21/20 A3004 RMK A01 T02060196  RH  094%=      5-min Rain = 0
KPD3 031103Z 29003KT 21/20 A3004 RMK A01 T02060195  RH  093%=      5-min Rain = 0
KPD3 031104Z 29004KT 21/19 A3004 RMK A01 T02050194  RH  093%=      5-min Rain = 0
KPD3 031105Z 30005KT 21/19 A3004 RMK A01 T02050194  RH  094%=      5-min Rain = 0
KPD3 031106Z 31005KT 20/19 A3004 RMK A01 T02040194  RH  094%=      5-min Rain = 0
KPD3 031107Z 31005KT 20/20 A3004 RMK A01 T02040195  RH  094%=      5-min Rain = 0
KPD3 031108Z 32005KT 21/20 A3004 RMK A01 T02050195  RH  094%=      5-min Rain = 0
KPD3 031109Z 32005KT 21/20 A3004 RMK A01 T02050196  RH  094%=      5-min Rain = 0
KPD3 031110Z 33005KT 21/20 A3004 RMK A01 T02070196  RH  094%=      5-min Rain = 0
KPD3 031111Z 33004KT 21/20 A3004 RMK A01 T02070196  RH  093%=      5-min Rain = 0
KPD3 031112Z 33004KT 21/20 A3004 RMK A01 T02080196  RH  093%=      5-min Rain = 0
KPD3 031113Z 33004KT 21/20 A3004 RMK A01 T02090196  RH  092%=      5-min Rain = 0
KPD3 031114Z 33004KT 21/20 A3004 RMK A01 T02090196  RH  092%=      5-min Rain = 0
KPD3 031115Z 33004KT 21/20 A3004 RMK A01 T02080196  RH  093%=      5-min Rain = 0
KPD3 031116Z 33004KT 21/20 A3004 RMK A01 T02080196  RH  093%=      5-min Rain = 0
KPD3 031117Z 33005KT 21/20 A3004 RMK A01 T02080196  RH  093%=      5-min Rain = 0
KPD3 031118Z 33005KT 21/20 A3004 RMK A01 T02080196  RH  093%=      5-min Rain = 0
KPD3 031119Z 32005KT 21/20 A3004 RMK A01 T02080196  RH  093%=      5-min Rain = 0
KPD3 031120Z 32005KT 21/20 A3004 RMK A01 T02080196  RH  093%=      5-min Rain = 0
KPD3 031121Z 32006KT 21/20 A3005 RMK A01 T02080196  RH  093%=      5-min Rain = 0
KPD3 031122Z 33006KT 21/20 A3005 RMK A01 T02080197  RH  093%=      5-min Rain = 0
KPD3 031123Z 33006KT 21/20 A3005 RMK A01 T02090197  RH  093%=      5-min Rain = 0
KPD3 031124Z 33006KT 21/20 A3005 RMK A01 T02090197  RH  093%=      5-min Rain = 0
KPD3 031125Z 34005KT 21/20 A3005 RMK A01 T02090197  RH  093%=      5-min Rain = 0
KPD3 031126Z 34005KT 21/20 A3005 RMK A01 T02090197  RH  093%=      5-min Rain = 0
KPD3 031127Z 34005KT 21/20 A3005 RMK A01 T02090196  RH  093%=      5-min Rain = 0
KPD3 031128Z 34005KT 21/20 A3005 RMK A01 T02090197  RH  093%=      5-min Rain = 0
KPD3 031129Z 34005KT 21/20 A3005 RMK A01 T02090196  RH  093%=      5-min Rain = 0
KPD3 031130Z 34005KT 21/20 A3005 RMK A01 T02090197  RH  093%=      5-min Rain = 0
KPD3 031131Z 35004KT 21/20 A3005 RMK A01 T02080196  RH  093%=      5-min Rain = 0
KPD3 031132Z 34004KT 21/20 A3005 RMK A01 T02080196  RH  093%=      5-min Rain = 0
KPD3 031133Z 34004KT 21/20 A3005 RMK A01 T02080196  RH  093%=      5-min Rain = 0
KPD3 031134Z 34004KT 21/20 A3005 RMK A01 T02080196  RH  093%=      5-min Rain = 0
KPD3 031135Z 34004KT 21/20 A3005 RMK A01 T02090196  RH  093%=      5-min Rain = 0
KPD3 031136Z 34004KT 21/20 A3005 RMK A01 T02080196  RH  093%=      5-min Rain = 0
KPD3 031137Z 34004KT 21/20 A3005 RMK A01 T02080196  RH  093%=      5-min Rain = 0
KPD3 031138Z 34004KT 21/20 A3005 RMK A01 T02080196  RH  093%=      5-min Rain = 0
KPD3 031139Z 34004KT 21/20 A3005 RMK A01 T02080196  RH  093%=      5-min Rain = 0
KPD3 031140Z 34004KT 21/20 A3005 RMK A01 T02080196  RH  093%=      5-min Rain = 0
KPD3 031141Z 35003KT 21/20 A3005 RMK A01 T02080196  RH  093%=      5-min Rain = 0
KPD3 031142Z 35003KT 21/20 A3005 RMK A01 T02080196  RH  093%=      5-min Rain = 0
KPD3 031143Z 35003KT 21/20 A3005 RMK A01 T02080196  RH  093%=      5-min Rain = 0
KPD3 031144Z 34003KT 21/20 A3005 RMK A01 T02080196  RH  093%=      5-min Rain = 0
KPD3 031145Z 34004KT 21/20 A3005 RMK A01 T02080196  RH  093%=      5-min Rain = 0
KPD3 031146Z 35004KT 21/20 A3005 RMK A01 T02070196  RH  093%=      5-min Rain = 0
KPD3 031147Z 35004KT 21/20 A3005 RMK A01 T02070196  RH  093%=      5-min Rain = 0
KPD3 031148Z 35004KT 21/20 A3005 RMK A01 T02070196  RH  093%=      5-min Rain = 0
KPD3 031149Z 35004KT 21/20 A3005 RMK A01 T02070197  RH  094%=      5-min Rain = 0
KPD3 031150Z 34004KT 21/20 A3005 RMK A01 T02070197  RH  094%=      5-min Rain = 0
KPD3 031151Z 34004KT 21/20 A3005 RMK A01 T02070197  RH  094%=      5-min Rain = 0
KPD3 031152Z 34004KT 21/20 A3005 RMK A01 T02080197  RH  093%=      5-min Rain = 0
KPD3 031153Z 33004KT 21/20 A3005 RMK A01 T02080197  RH  093%=      5-min Rain = 0
KPD3 031154Z 33003KT 21/20 A3005 RMK A01 T02090197  RH  093%=      5-min Rain = 0
KPD3 031155Z 33004KT 21/20 A3006 RMK A01 T02090197  RH  093%=      5-min Rain = 0
KPD3 031156Z 33004KT 21/20 A3006 RMK A01 T02080197  RH  093%=      5-min Rain = 0
KPD3 031157Z 33004KT 21/20 A3006 RMK A01 T02090197  RH  093%=      5-min Rain = 0
KPD3 031158Z 33004KT 21/20 A3006 RMK A01 T02090197  RH  093%=      5-min Rain = 0
KPD3 031159Z 32004KT 21/20 A3006 RMK A01 T02090197  RH  093%=      5-min Rain = 0
KPD3 031200Z 32004KT 21/20 A3006 RMK A01 T02080197  RH  093%=      5-min Rain = 0
KPD3 031201Z 33004KT 21/20 A3006 RMK A01 T02090197  RH  093%=      5-min Rain = 0
KPD3 031202Z 33004KT 21/20 A3006 RMK A01 T02090197  RH  093%=      5-min Rain = 0
KPD3 031203Z 33004KT 21/20 A3006 RMK A01 T02090197  RH  093%=      5-min Rain = 0
KPD3 031204Z 33004KT 21/20 A3006 RMK A01 T02090198  RH  093%=      5-min Rain = 0
KPD3 031205Z 34004KT 21/20 A3006 RMK A01 T02100198  RH  093%=      5-min Rain = 0
KPD3 031206Z 34004KT 21/20 A3006 RMK A01 T02100198  RH  093%=      5-min Rain = 0
KPD3 031207Z 35005KT 21/20 A3006 RMK A01 T02100199  RH  093%=      5-min Rain = 0
KPD3 031208Z 35005KT 21/20 A3006 RMK A01 T02100199  RH  093%=      5-min Rain = 0
KPD3 031209Z 35005KT 21/20 A3006 RMK A01 T02110200  RH  093%=      5-min Rain = 0
KPD3 031210Z 35005KT 21/20 A3006 RMK A01 T02110200  RH  093%=      5-min Rain = 0
KPD3 031211Z 35006KT 21/20 A3006 RMK A01 T02120201  RH  093%=      5-min Rain = 0
KPD3 031212Z 34006KT 21/20 A3007 RMK A01 T02130201  RH  093%=      5-min Rain = 0
KPD3 031213Z 34006KT 21/20 A3006 RMK A01 T02130201  RH  093%=      5-min Rain = 0
KPD3 031214Z 34006KT 21/20 A3006 RMK A01 T02140202  RH  093%=      5-min Rain = 0
KPD3 031215Z 34006KT 22/20 A3006 RMK A01 T02150202  RH  092%=      5-min Rain = 0
KPD3 031216Z 33006KT 22/20 A3006 RMK A01 T02150202  RH  092%=      5-min Rain = 0
KPD3 031217Z 33006KT 22/20 A3006 RMK A01 T02160203  RH  092%=      5-min Rain = 0
KPD3 031218Z 33006KT 22/20 A3006 RMK A01 T02170203  RH  092%=      5-min Rain = 0
KPD3 031219Z 33006KT 22/20 A3006 RMK A01 T02170203  RH  091%=      5-min Rain = 0
KPD3 031220Z 33005KT 22/20 A3006 RMK A01 T02180203  RH  091%=      5-min Rain = 0
KPD3 031221Z 33004KT 22/20 A3006 RMK A01 T02180203  RH  091%=      5-min Rain = 0
KPD3 031222Z 33004KT 22/20 A3006 RMK A01 T02190203  RH  091%=      5-min Rain = 0
KPD3 031223Z 33003KT 22/20 A3006 RMK A01 T02200204  RH  091%=      5-min Rain = 0
KPD3 031224Z 33003KT 22/20 A3006 RMK A01 T02200203  RH  090%=      5-min Rain = 0
KPD3 031225Z 33002KT 22/20 A3006 RMK A01 T02210204  RH  090%=      5-min Rain = 0
KPD3 031226Z 33002KT 22/20 A3006 RMK A01 T02220204  RH  090%=      5-min Rain = 0
KPD3 031227Z 33002KT 22/20 A3006 RMK A01 T02220204  RH  090%=      5-min Rain = 0
KPD3 031228Z 34002KT 22/21 A3006 RMK A01 T02230205  RH  090%=      5-min Rain = 0
KPD3 031229Z 34002KT 22/21 A3006 RMK A01 T02230206  RH  090%=      5-min Rain = 0
KPD3 031230Z 34002KT 22/21 A3006 RMK A01 T02240206  RH  090%=      5-min Rain = 0
KPD3 031231Z 34003KT 22/21 A3006 RMK A01 T02240207  RH  090%=      5-min Rain = 0
KPD3 031232Z 34002KT 23/21 A3006 RMK A01 T02250207  RH  089%=      5-min Rain = 0
KPD3 031233Z 34002KT 23/21 A3006 RMK A01 T02250207  RH  089%=      5-min Rain = 0
KPD3 031234Z 35002KT 23/21 A3006 RMK A01 T02260207  RH  089%=      5-min Rain = 0
KPD3 031235Z 34003KT 23/21 A3006 RMK A01 T02270207  RH  089%=      5-min Rain = 0
KPD3 031236Z 33003KT 23/21 A3006 RMK A01 T02270207  RH  089%=      5-min Rain = 0
KPD3 031237Z 33003KT 23/21 A3006 RMK A01 T02280209  RH  089%=      5-min Rain = 0
KPD3 031238Z 33003KT 23/21 A3006 RMK A01 T02280209  RH  089%=      5-min Rain = 0
KPD3 031239Z 33003KT 23/21 A3006 RMK A01 T02290208  RH  088%=      5-min Rain = 0
KPD3 031240Z 33003KT 23/21 A3006 RMK A01 T02300209  RH  088%=      5-min Rain = 0
KPD3 031241Z 34003KT 23/21 A3007 RMK A01 T02310209  RH  088%=      5-min Rain = 0
KPD3 031242Z 33003KT 23/21 A3007 RMK A01 T02310209  RH  087%=      5-min Rain = 0
KPD3 031243Z 33003KT 23/21 A3007 RMK A01 T02320209  RH  087%=      5-min Rain = 0
KPD3 031244Z 32002KT 23/21 A3007 RMK A01 T02330209  RH  086%=      5-min Rain = 0
KPD3 031245Z 33002KT 23/21 A3007 RMK A01 T02340209  RH  086%=      5-min Rain = 0
KPD3 031246Z 33001KT 23/21 A3007 RMK A01 T02340209  RH  086%=      5-min Rain = 0
KPD3 031247Z 33001KT 24/21 A3007 RMK A01 T02350211  RH  086%=      5-min Rain = 0
KPD3 031248Z 32000KT 24/21 A3007 RMK A01 T02360212  RH  086%=      5-min Rain = 0
KPD3 031249Z 31000KT 24/21 A3007 RMK A01 T02370211  RH  085%=      5-min Rain = 0
KPD3 031250Z 31000KT 24/21 A3007 RMK A01 T02380210  RH  085%=      5-min Rain = 0
KPD3 031251Z 00000KT 24/21 A3007 RMK A01 T02390212  RH  085%=      5-min Rain = 0
KPD3 031252Z 00000KT 24/21 A3007 RMK A01 T02390210  RH  084%=      5-min Rain = 0
KPD3 031253Z 25000KT 24/21 A3007 RMK A01 T02400207  RH  082%=      5-min Rain = 0
KPD3 031254Z 14000KT 24/21 A3007 RMK A01 T02400208  RH  082%=      5-min Rain = 0
KPD3 031255Z 13001KT 24/21 A3007 RMK A01 T02410206  RH  081%=      5-min Rain = 0
KPD3 031256Z 15001KT 24/21 A3007 RMK A01 T02420206  RH  080%=      5-min Rain = 0
KPD3 031257Z 14002KT 24/20 A3007 RMK A01 T02430204  RH  079%=      5-min Rain = 0
KPD3 031258Z 17001KT 24/20 A3007 RMK A01 T02430204  RH  079%=      5-min Rain = 0
KPD3 031259Z 12002KT 24/21 A3007 RMK A01 T02440207  RH  080%=      5-min Rain = 0
KPD3 031300Z 13002KT 25/21 A3007 RMK A01 T02450207  RH  079%=      5-min Rain = 0
KPD3 031301Z 16002KT 25/21 A3007 RMK A01 T02460207  RH  079%=      5-min Rain = 0
KPD3 031302Z 14003KT 25/21 A3007 RMK A01 T02470208  RH  079%=      5-min Rain = 0
KPD3 031303Z 15002KT 25/21 A3007 RMK A01 T02470207  RH  078%=      5-min Rain = 0
KPD3 031304Z 13002KT 25/21 A3007 RMK A01 T02470208  RH  079%=      5-min Rain = 0
KPD3 031305Z 13002KT 25/21 A3007 RMK A01 T02470207  RH  078%=      5-min Rain = 0
KPD3 031306Z 13003KT 25/21 A3007 RMK A01 T02470207  RH  079%=      5-min Rain = 0
KPD3 031307Z 14003KT 25/21 A3007 RMK A01 T02470206  RH  078%=      5-min Rain = 0
KPD3 031308Z 16004KT 25/21 A3007 RMK A01 T02470207  RH  078%=      5-min Rain = 0
KPD3 031309Z 15003KT 25/21 A3007 RMK A01 T02470206  RH  078%=      5-min Rain = 0
KPD3 031310Z 15003KT 25/21 A3007 RMK A01 T02470206  RH  078%=      5-min Rain = 0
KPD3 031311Z 12004KT 25/21 A3007 RMK A01 T02470207  RH  078%=      5-min Rain = 0
KPD3 031312Z 12004KT 25/21 A3007 RMK A01 T02470205  RH  078%=      5-min Rain = 0
KPD3 031313Z 14003KT 25/21 A3007 RMK A01 T02470207  RH  079%=      5-min Rain = 0
KPD3 031314Z 15003KT 25/21 A3007 RMK A01 T02470208  RH  079%=      5-min Rain = 0
KPD3 031315Z 15004KT 25/21 A3007 RMK A01 T02460205  RH  078%=      5-min Rain = 0
KPD3 031316Z 14004KT 25/21 A3007 RMK A01 T02470206  RH  078%=      5-min Rain = 0
KPD3 031317Z 14004KT 25/21 A3007 RMK A01 T02470206  RH  078%=      5-min Rain = 0
KPD3 031318Z 12005KT 25/21 A3007 RMK A01 T02460206  RH  078%=      5-min Rain = 0
KPD3 031319Z 13003KT 25/21 A3007 RMK A01 T02460207  RH  079%=      5-min Rain = 0
KPD3 031320Z 12003KT 25/21 A3007 RMK A01 T02470206  RH  078%=      5-min Rain = 0
KPD3 031321Z 12003KT 25/21 A3007 RMK A01 T02470208  RH  079%=      5-min Rain = 0
KPD3 031322Z 12004KT 25/21 A3007 RMK A01 T02480208  RH  079%=      5-min Rain = 0
KPD3 031323Z 12004KT 25/21 A3008 RMK A01 T02480208  RH  078%=      5-min Rain = 0
KPD3 031324Z 12004KT 25/21 A3008 RMK A01 T02490210  RH  079%=      5-min Rain = 0
KPD3 031325Z 11005KT 25/21 A3008 RMK A01 T02500208  RH  077%=      5-min Rain = 0
KPD3 031326Z 11003KT 25/21 A3008 RMK A01 T02490206  RH  077%=      5-min Rain = 0
KPD3 031327Z 12003KT 25/21 A3008 RMK A01 T02480205  RH  077%=      5-min Rain = 0
KPD3 031328Z 13003KT 25/21 A3008 RMK A01 T02480206  RH  078%=      5-min Rain = 0
KPD3 031329Z 11003KT 25/21 A3008 RMK A01 T02480207  RH  078%=      5-min Rain = 0
KPD3 031330Z 10003KT 25/21 A3008 RMK A01 T02480207  RH  078%=      5-min Rain = 0
KPD3 031331Z 10003KT 25/21 A3008 RMK A01 T02480207  RH  078%=      5-min Rain = 0
KPD3 031332Z 12003KT 25/21 A3008 RMK A01 T02490209  RH  079%=      5-min Rain = 0
KPD3 031333Z 11003KT 25/21 A3008 RMK A01 T02500208  RH  077%=      5-min Rain = 0
KPD3 031334Z 10004KT 25/21 A3008 RMK A01 T02510209  RH  078%=      5-min Rain = 0
KPD3 031335Z 08003KT 25/21 A3008 RMK A01 T02510208  RH  077%=      5-min Rain = 0
KPD3 031336Z 09004KT 25/21 A3008 RMK A01 T02500209  RH  078%=      5-min Rain = 0
KPD3 031337Z 07005KT 25/21 A3008 RMK A01 T02510212  RH  079%=      5-min Rain = 0
KPD3 031338Z 07004KT 25/21 A3008 RMK A01 T02520211  RH  078%=      5-min Rain = 0
KPD3 031339Z 09003KT 25/21 A3008 RMK A01 T02530211  RH  078%=      5-min Rain = 0
KPD3 031340Z 09004KT 25/21 A3008 RMK A01 T02530210  RH  077%=      5-min Rain = 0
KPD3 031341Z 09004KT 25/21 A3009 RMK A01 T02530209  RH  077%=      5-min Rain = 0
KPD3 031342Z 09004KT 25/21 A3009 RMK A01 T02520209  RH  077%=      5-min Rain = 0
KPD3 031343Z 09005KT 25/21 A3009 RMK A01 T02520210  RH  078%=      5-min Rain = 0
KPD3 031344Z 07004KT 25/21 A3009 RMK A01 T02520212  RH  078%=      5-min Rain = 0
KPD3 031345Z 06004KT 25/21 A3009 RMK A01 T02530211  RH  077%=      5-min Rain = 0
KPD3 031346Z 07005KT 25/21 A3009 RMK A01 T02530212  RH  078%=      5-min Rain = 0
KPD3 031347Z 07006KT 25/21 A3009 RMK A01 T02540212  RH  077%=      5-min Rain = 0
KPD3 031348Z 06006KT 26/21 A3009 RMK A01 T02550209  RH  076%=      5-min Rain = 0
KPD3 031349Z 07005KT 25/21 A3009 RMK A01 T02530210  RH  077%=      5-min Rain = 0
KPD3 031350Z 07004KT 25/21 A3009 RMK A01 T02530211  RH  077%=      5-min Rain = 0
KPD3 031351Z 07005KT 25/21 A3009 RMK A01 T02540212  RH  077%=      5-min Rain = 0
KPD3 031352Z 07005KT 25/21 A3009 RMK A01 T02540210  RH  077%=      5-min Rain = 0
KPD3 031353Z 07004KT 25/21 A3009 RMK A01 T02540209  RH  076%=      5-min Rain = 0
KPD3 031354Z 08004KT 25/21 A3009 RMK A01 T02540211  RH  077%=      5-min Rain = 0
KPD3 031355Z 08004KT 26/21 A3009 RMK A01 T02550211  RH  077%=      5-min Rain = 0
KPD3 031356Z 09005KT 26/21 A3008 RMK A01 T02550211  RH  077%=      5-min Rain = 0
KPD3 031357Z 09005KT 26/21 A3008 RMK A01 T02560209  RH  075%=      5-min Rain = 0
KPD3 031358Z 09003KT 26/21 A3008 RMK A01 T02550208  RH  075%=      5-min Rain = 0
KPD3 031359Z 09004KT 25/21 A3008 RMK A01 T02540212  RH  077%=      5-min Rain = 0
KPD3 031400Z 09005KT 26/21 A3008 RMK A01 T02560210  RH  076%=      5-min Rain = 0
KPD3 031401Z 09005KT 26/21 A3008 RMK A01 T02560209  RH  075%=      5-min Rain = 0
KPD3 031402Z 08005KT 26/21 A3008 RMK A01 T02560210  RH  076%=      5-min Rain = 0
KPD3 031403Z 07004KT 26/21 A3008 RMK A01 T02560208  RH  075%=      5-min Rain = 0
KPD3 031404Z 10002KT 26/21 A3008 RMK A01 T02550210  RH  076%=      5-min Rain = 0
KPD3 031405Z 08003KT 26/21 A3008 RMK A01 T02560211  RH  076%=      5-min Rain = 0
KPD3 031406Z 08002KT 26/21 A3008 RMK A01 T02580209  RH  075%=      5-min Rain = 0
KPD3 031407Z 10001KT 26/21 A3008 RMK A01 T02580211  RH  075%=      5-min Rain = 0
KPD3 031408Z 11004KT 26/21 A3008 RMK A01 T02600210  RH  074%=      5-min Rain = 0
KPD3 031409Z 11003KT 26/21 A3008 RMK A01 T02600209  RH  074%=      5-min Rain = 0
KPD3 031410Z 12002KT 26/21 A3008 RMK A01 T02600208  RH  073%=      5-min Rain = 0
KPD3 031411Z 13003KT 26/21 A3008 RMK A01 T02600210  RH  074%=      5-min Rain = 0
KPD3 031412Z 14002KT 26/21 A3008 RMK A01 T02610210  RH  073%=      5-min Rain = 0
KPD3 031413Z 11002KT 26/21 A3008 RMK A01 T02620210  RH  073%=      5-min Rain = 0
KPD3 031414Z 11001KT 26/21 A3008 RMK A01 T02630210  RH  073%=      5-min Rain = 0
KPD3 031415Z 09001KT 26/21 A3008 RMK A01 T02630213  RH  074%=      5-min Rain = 0
KPD3 031416Z 09002KT 27/21 A3008 RMK A01 T02650213  RH  073%=      5-min Rain = 0
KPD3 031417Z 13002KT 27/21 A3008 RMK A01 T02660214  RH  073%=      5-min Rain = 0
KPD3 031418Z 13002KT 27/21 A3008 RMK A01 T02670214  RH  073%=      5-min Rain = 0
KPD3 031419Z 14002KT 27/21 A3008 RMK A01 T02680213  RH  072%=      5-min Rain = 0
KPD3 031420Z 13002KT 27/21 A3008 RMK A01 T02690212  RH  071%=      5-min Rain = 0
KPD3 031421Z 11002KT 27/21 A3008 RMK A01 T02690212  RH  071%=      5-min Rain = 0
KPD3 031422Z 09002KT 27/21 A3008 RMK A01 T02680212  RH  071%=      5-min Rain = 0
KPD3 031423Z 10002KT 27/21 A3008 RMK A01 T02670211  RH  071%=      5-min Rain = 0
KPD3 031424Z 11002KT 27/21 A3008 RMK A01 T02670212  RH  072%=      5-min Rain = 0
KPD3 031425Z 13003KT 27/21 A3009 RMK A01 T02670213  RH  072%=      5-min Rain = 0
KPD3 031426Z 12004KT 27/21 A3009 RMK A01 T02680210  RH  070%=      5-min Rain = 0
KPD3 031427Z 13004KT 27/21 A3009 RMK A01 T02690213  RH  072%=      5-min Rain = 0
KPD3 031428Z 13004KT 27/21 A3009 RMK A01 T02690211  RH  071%=      5-min Rain = 0
KPD3 031429Z 16004KT 27/21 A3009 RMK A01 T02680211  RH  071%=      5-min Rain = 0
KPD3 031430Z 17004KT 27/21 A3009 RMK A01 T02680212  RH  071%=      5-min Rain = 0
KPD3 031431Z 17003KT 27/21 A3009 RMK A01 T02670211  RH  071%=      5-min Rain = 0
KPD3 031432Z 17003KT 27/21 A3009 RMK A01 T02660212  RH  072%=      5-min Rain = 0
KPD3 031433Z 12003KT 27/21 A3009 RMK A01 T02670210  RH  071%=      5-min Rain = 0
KPD3 031434Z 09002KT 27/21 A3009 RMK A01 T02660211  RH  072%=      5-min Rain = 0
KPD3 031435Z 07004KT 27/21 A3009 RMK A01 T02680212  RH  072%=      5-min Rain = 0
KPD3 031436Z 08002KT 27/21 A3009 RMK A01 T02690211  RH  070%=      5-min Rain = 0
KPD3 031437Z 09003KT 27/21 A3009 RMK A01 T02690213  RH  071%=      5-min Rain = 0
KPD3 031438Z 10004KT 27/22 A3009 RMK A01 T02710216  RH  072%=      5-min Rain = 0
KPD3 031439Z 12003KT 27/21 A3009 RMK A01 T02720214  RH  071%=      5-min Rain = 0
KPD3 031440Z 07003KT 27/21 A3009 RMK A01 T02730213  RH  070%=      5-min Rain = 0
KPD3 031441Z 08003KT 27/21 A3009 RMK A01 T02720211  RH  069%=      5-min Rain = 0
KPD3 031442Z 08002KT 27/21 A3009 RMK A01 T02710211  RH  070%=      5-min Rain = 0
KPD3 031443Z 11002KT 27/21 A3009 RMK A01 T02700212  RH  070%=      5-min Rain = 0
KPD3 031444Z 11001KT 27/21 A3009 RMK A01 T02710211  RH  070%=      5-min Rain = 0
KPD3 031445Z 12003KT 27/21 A3009 RMK A01 T02710213  RH  070%=      5-min Rain = 0
KPD3 031446Z 09004KT 27/22 A3009 RMK A01 T02730216  RH  071%=      5-min Rain = 0
KPD3 031447Z 08005KT 27/21 A3009 RMK A01 T02740212  RH  069%=      5-min Rain = 0
KPD3 031448Z 09005KT 27/21 A3009 RMK A01 T02730214  RH  070%=      5-min Rain = 0
KPD3 031449Z 09005KT 27/21 A3009 RMK A01 T02730213  RH  070%=      5-min Rain = 0
KPD3 031450Z 09006KT 27/21 A3009 RMK A01 T02730213  RH  069%=      5-min Rain = 0
KPD3 031451Z 09004KT 27/21 A3009 RMK A01 T02730212  RH  069%=      5-min Rain = 0
KPD3 031452Z 09004KT 27/21 A3009 RMK A01 T02730211  RH  069%=      5-min Rain = 0
KPD3 031453Z 09003KT 27/21 A3009 RMK A01 T02730211  RH  069%=      5-min Rain = 0
KPD3 031454Z 10003KT 27/21 A3009 RMK A01 T02740211  RH  069%=      5-min Rain = 0
KPD3 031455Z 10003KT 27/21 A3009 RMK A01 T02740212  RH  069%=      5-min Rain = 0
KPD3 031456Z 08004KT 28/22 A3009 RMK A01 T02750216  RH  070%=      5-min Rain = 0
KPD3 031457Z 08005KT 28/22 A3009 RMK A01 T02780217  RH  069%=      5-min Rain = 0
KPD3 031458Z 08005KT 28/21 A3009 RMK A01 T02790214  RH  068%=      5-min Rain = 0
KPD3 031459Z 09003KT 28/21 A3009 RMK A01 T02780213  RH  068%=      5-min Rain = 0
KPD3 031500Z 08004KT 28/21 A3009 RMK A01 T02770214  RH  069%=      5-min Rain = 0
KPD3 031501Z 08006KT 28/21 A3009 RMK A01 T02770213  RH  068%=      5-min Rain = 0
KPD3 031502Z 08006KT 28/22 A3009 RMK A01 T02780215  RH  068%=      5-min Rain = 0
KPD3 031503Z 07005KT 28/21 A3009 RMK A01 T02790214  RH  068%=      5-min Rain = 0
KPD3 031504Z 07004KT 28/22 A3009 RMK A01 T02790216  RH  069%=      5-min Rain = 0
KPD3 031505Z 09004KT 28/22 A3009 RMK A01 T02800217  RH  069%=      5-min Rain = 0
KPD3 031506Z 12004KT 28/21 A3009 RMK A01 T02810214  RH  067%=      5-min Rain = 0
KPD3 031507Z 11004KT 28/21 A3009 RMK A01 T02810213  RH  067%=      5-min Rain = 0
KPD3 031508Z 13003KT 28/21 A3009 RMK A01 T02810214  RH  067%=      5-min Rain = 0
KPD3 031509Z 12004KT 28/21 A3009 RMK A01 T02810213  RH  067%=      5-min Rain = 0
KPD3 031510Z 12002KT 28/21 A3009 RMK A01 T02810211  RH  066%=      5-min Rain = 0
KPD3 031511Z 09004KT 28/21 A3009 RMK A01 T02820212  RH  066%=      5-min Rain = 0
KPD3 031512Z 11004KT 28/21 A3009 RMK A01 T02830212  RH  066%=      5-min Rain = 0
KPD3 031513Z 09004KT 28/21 A3009 RMK A01 T02830212  RH  066%=      5-min Rain = 0
KPD3 031514Z 08005KT 28/22 A3009 RMK A01 T02830215  RH  067%=      5-min Rain = 0
KPD3 031515Z 10004KT 28/21 A3009 RMK A01 T02840211  RH  065%=      5-min Rain = 0
KPD3 031516Z 11004KT 28/21 A3009 RMK A01 T02840212  RH  065%=      5-min Rain = 0
KPD3 031517Z 09005KT 29/21 A3009 RMK A01 T02850213  RH  065%=      5-min Rain = 0
KPD3 031518Z 10006KT 29/21 A3009 RMK A01 T02860210  RH  063%=      5-min Rain = 0
KPD3 031519Z 10006KT 29/21 A3009 RMK A01 T02850212  RH  065%=      5-min Rain = 0
KPD3 031520Z 10005KT 29/21 A3009 RMK A01 T02850210  RH  064%=      5-min Rain = 0
KPD3 031521Z 11004KT 28/21 A3009 RMK A01 T02840211  RH  065%=      5-min Rain = 0
KPD3 031522Z 12003KT 28/21 A3009 RMK A01 T02840214  RH  066%=      5-min Rain = 0
KPD3 031523Z 10003KT 29/22 A3009 RMK A01 T02860215  RH  065%=      5-min Rain = 0
KPD3 031524Z 08002KT 29/22 A3009 RMK A01 T02880217  RH  065%=      5-min Rain = 0
KPD3 031525Z 12004KT 29/22 A3009 RMK A01 T02890216  RH  065%=      5-min Rain = 0
KPD3 031526Z 11006KT 29/21 A3009 RMK A01 T02910214  RH  063%=      5-min Rain = 0
KPD3 031527Z 11004KT 29/21 A3009 RMK A01 T02910213  RH  063%=      5-min Rain = 0
KPD3 031528Z 09004KT 29/21 A3009 RMK A01 T02890211  RH  062%=      5-min Rain = 0
KPD3 031529Z 11004KT 29/21 A3009 RMK A01 T02880209  RH  062%=      5-min Rain = 0
KPD3 031530Z 15004KT 29/21 A3009 RMK A01 T02880212  RH  063%=      5-min Rain = 0
KPD3 031531Z 13003KT 29/21 A3009 RMK A01 T02900212  RH  063%=      5-min Rain = 0
KPD3 031532Z 11004KT 29/21 A3009 RMK A01 T02920214  RH  063%=      5-min Rain = 0
KPD3 031533Z 10003KT 29/21 A3009 RMK A01 T02930212  RH  062%=      5-min Rain = 0
KPD3 031534Z 10004KT 29/21 A3009 RMK A01 T02930212  RH  062%=      5-min Rain = 0
KPD3 031535Z 11005KT 29/21 A3009 RMK A01 T02930211  RH  061%=      5-min Rain = 0
KPD3 031536Z 11006KT 29/21 A3009 RMK A01 T02940210  RH  061%=      5-min Rain = 0
KPD3 031537Z 14006KT 29/21 A3009 RMK A01 T02940209  RH  060%=      5-min Rain = 0
KPD3 031538Z 15005KT 29/21 A3009 RMK A01 T02940207  RH  060%=      5-min Rain = 0
KPD3 031539Z 14004KT 29/21 A3009 RMK A01 T02940208  RH  060%=      5-min Rain = 0
KPD3 031540Z 11005KT 30/20 A3009 RMK A01 T02950204  RH  058%=      5-min Rain = 0
KPD3 031541Z 12004KT 30/20 A3009 RMK A01 T02950201  RH  057%=      5-min Rain = 0
KPD3 031542Z 12005KT 30/20 A3009 RMK A01 T02950200  RH  057%=      5-min Rain = 0
KPD3 031543Z 13004KT 30/20 A3009 RMK A01 T02950199  RH  056%=      5-min Rain = 0
KPD3 031544Z 10003KT 30/21 A3009 RMK A01 T02960208  RH  059%=      5-min Rain = 0
KPD3 031545Z 14003KT 30/20 A3009 RMK A01 T02990204  RH  057%=      5-min Rain = 0
KPD3 031546Z 12003KT 30/20 A3009 RMK A01 T02990200  RH  055%=      5-min Rain = 0
KPD3 031547Z 10004KT 30/21 A3009 RMK A01 T02990205  RH  057%=      5-min Rain = 0
KPD3 031548Z 12004KT 30/20 A3009 RMK A01 T02990204  RH  057%=      5-min Rain = 0
KPD3 031549Z 14004KT 30/20 A3009 RMK A01 T03000200  RH  055%=      5-min Rain = 0
KPD3 031550Z 13003KT 30/20 A3009 RMK A01 T03000203  RH  056%=      5-min Rain = 0
KPD3 031551Z 14004KT 30/21 A3009 RMK A01 T03000206  RH  057%=      5-min Rain = 0
KPD3 031552Z 16005KT 30/20 A3009 RMK A01 T03020196  RH  053%=      5-min Rain = 0
KPD3 031553Z 17004KT 30/20 A3009 RMK A01 T03020196  RH  053%=      5-min Rain = 0
KPD3 031554Z 15003KT 30/20 A3009 RMK A01 T03030199  RH  054%=      5-min Rain = 0
KPD3 031555Z 14004KT 30/20 A3009 RMK A01 T03040198  RH  053%=      5-min Rain = 0
KPD3 031556Z 13004KT 30/19 A3009 RMK A01 T03040194  RH  052%=      5-min Rain = 0
KPD3 031557Z 13007KT 30/21 A3009 RMK A01 T03040205  RH  055%=      5-min Rain = 0
KPD3 031558Z 10006KT 30/20 A3009 RMK A01 T03040203  RH  055%=      5-min Rain = 0
KPD3 031559Z 09004KT 31/20 A3009 RMK A01 T03050202  RH  054%=      5-min Rain = 0
KPD3 031600Z 09003KT 31/20 A3009 RMK A01 T03050200  RH  053%=      5-min Rain = 0
KPD3 031601Z 07004KT 31/20 A3009 RMK A01 T03050200  RH  054%=      5-min Rain = 0
KPD3 031602Z 09003KT 31/20 A3009 RMK A01 T03050196  RH  052%=      5-min Rain = 0
KPD3 031603Z 16004KT 31/20 A3009 RMK A01 T03060198  RH  053%=      5-min Rain = 0
KPD3 031604Z 17005KT 31/19 A3009 RMK A01 T03070193  RH  050%=      5-min Rain = 0
KPD3 031605Z 17006KT 31/20 A3009 RMK A01 T03080197  RH  052%=      5-min Rain = 0
KPD3 031606Z 18005KT 31/19 A3009 RMK A01 T03100189  RH  049%=      5-min Rain = 0
KPD3 031607Z 22003KT 31/19 A3009 RMK A01 T03070188  RH  049%=      5-min Rain = 0
KPD3 031608Z 17004KT 31/20 A3009 RMK A01 T03060195  RH  052%=      5-min Rain = 0
KPD3 031609Z 18004KT 31/19 A3009 RMK A01 T03080186  RH  048%=      5-min Rain = 0
KPD3 031610Z 18004KT 31/20 A3009 RMK A01 T03080195  RH  051%=      5-min Rain = 0
KPD3 031611Z 15005KT 31/19 A3009 RMK A01 T03090193  RH  050%=      5-min Rain = 0
KPD3 031612Z 17003KT 31/19 A3009 RMK A01 T03100190  RH  049%=      5-min Rain = 0
KPD3 031613Z 17001KT 31/19 A3009 RMK A01 T03090189  RH  049%=      5-min Rain = 0
KPD3 031614Z 14001KT 31/19 A3009 RMK A01 T03080191  RH  049%=      5-min Rain = 0
KPD3 031615Z 12003KT 31/19 A3009 RMK A01 T03080193  RH  050%=      5-min Rain = 0
KPD3 031616Z 09006KT 31/20 A3009 RMK A01 T03100197  RH  051%=      5-min Rain = 0
KPD3 031617Z 10004KT 31/20 A3009 RMK A01 T03110195  RH  050%=      5-min Rain = 0
KPD3 031618Z 14006KT 31/19 A3009 RMK A01 T03100193  RH  050%=      5-min Rain = 0
KPD3 031619Z 15005KT 31/19 A3009 RMK A01 T03110192  RH  049%=      5-min Rain = 0
KPD3 031620Z 18002KT 31/19 A3009 RMK A01 T03100191  RH  049%=      5-min Rain = 0
KPD3 031621Z 22003KT 31/19 A3009 RMK A01 T03100193  RH  050%=      5-min Rain = 0
KPD3 031622Z 22002KT 31/19 A3009 RMK A01 T03090191  RH  050%=      5-min Rain = 0
KPD3 031623Z 09004KT 31/20 A3009 RMK A01 T03090197  RH  051%=      5-min Rain = 0
KPD3 031624Z 08004KT 31/19 A3009 RMK A01 T03120194  RH  049%=      5-min Rain = 0
KPD3 031625Z 09003KT 31/20 A3009 RMK A01 T03140195  RH  049%=      5-min Rain = 0
KPD3 031626Z 10004KT 32/19 A3009 RMK A01 T03150193  RH  048%=      5-min Rain = 0
KPD3 031627Z 10004KT 32/20 A3009 RMK A01 T03150195  RH  049%=      5-min Rain = 0
KPD3 031628Z 12005KT 32/19 A3009 RMK A01 T03160194  RH  048%=      5-min Rain = 0
KPD3 031629Z 15006KT 32/20 A3009 RMK A01 T03180197  RH  049%=      5-min Rain = 0
KPD3 031630Z 17007KT 32/19 A3009 RMK A01 T03200193  RH  047%=      5-min Rain = 0
KPD3 031631Z 17004KT 32/20 A3009 RMK A01 T03180195  RH  048%=      5-min Rain = 0
KPD3 031632Z 13006KT 32/19 A3009 RMK A01 T03180194  RH  048%=      5-min Rain = 0
KPD3 031633Z 12005KT 32/19 A3009 RMK A01 T03180191  RH  047%=      5-min Rain = 0
KPD3 031634Z 14004KT 32/19 A3009 RMK A01 T03180189  RH  047%=      5-min Rain = 0
KPD3 031635Z 13001KT 32/19 A3009 RMK A01 T03160185  RH  046%=      5-min Rain = 0
KPD3 031636Z 10001KT 32/19 A3009 RMK A01 T03150187  RH  047%=      5-min Rain = 0
KPD3 031637Z 14003KT 32/19 A3009 RMK A01 T03150190  RH  047%=      5-min Rain = 0
KPD3 031638Z 15002KT 32/20 A3009 RMK A01 T03170196  RH  049%=      5-min Rain = 0
KPD3 031639Z 12003KT 32/19 A3009 RMK A01 T03190194  RH  048%=      5-min Rain = 0
KPD3 031640Z 15006KT 32/19 A3009 RMK A01 T03200192  RH  047%=      5-min Rain = 0
KPD3 031641Z 14006KT 32/20 A3009 RMK A01 T03200199  RH  049%=      5-min Rain = 0
KPD3 031642Z 13005KT 32/19 A3009 RMK A01 T03200192  RH  047%=      5-min Rain = 0
KPD3 031643Z 11003KT 32/19 A3009 RMK A01 T03180192  RH  047%=      5-min Rain = 0
KPD3 031644Z 11004KT 32/19 A3009 RMK A01 T03170192  RH  047%=      5-min Rain = 0
KPD3 031645Z 07004KT 32/19 A3008 RMK A01 T03160189  RH  047%=      5-min Rain = 0
KPD3 031646Z 07002KT 32/19 A3008 RMK A01 T03150191  RH  048%=      5-min Rain = 0
KPD3 031647Z 11004KT 32/20 A3009 RMK A01 T03150197  RH  049%=      5-min Rain = 0
KPD3 031648Z 12003KT 32/20 A3009 RMK A01 T03180197  RH  049%=      5-min Rain = 0
KPD3 031649Z 13004KT 32/20 A3009 RMK A01 T03200196  RH  048%=      5-min Rain = 0
KPD3 031650Z 17004G9KT 32/19 A3009 RMK A01 T03220192  RH  046%=      5-min Rain = 0
KPD3 031651Z 19007KT 32/19 A3009 RMK A01 T03230191  RH  046%=      5-min Rain = 0
KPD3 031652Z 19005KT 32/19 A3009 RMK A01 T03230190  RH  045%=      5-min Rain = 0
KPD3 031653Z 23005KT 32/19 A3009 RMK A01 T03230191  RH  046%=      5-min Rain = 0
KPD3 031654Z 24005KT 32/19 A3008 RMK A01 T03220190  RH  046%=      5-min Rain = 0
KPD3 031655Z 22004KT 32/19 A3008 RMK A01 T03210187  RH  045%=      5-min Rain = 0
KPD3 031656Z 24004KT 32/19 A3008 RMK A01 T03200189  RH  046%=      5-min Rain = 0
KPD3 031657Z 19005KT 32/19 A3008 RMK A01 T03210188  RH  045%=      5-min Rain = 0
KPD3 031658Z 17008KT 32/19 A3008 RMK A01 T03200189  RH  046%=      5-min Rain = 0
KPD3 031659Z 16007KT 32/19 A3008 RMK A01 T03210191  RH  046%=      5-min Rain = 0
KPD3 031700Z 16007KT 32/19 A3008 RMK A01 T03210190  RH  046%=      5-min Rain = 0
KPD3 031701Z 15006KT 32/19 A3008 RMK A01 T03230187  RH  044%=      5-min Rain = 0
KPD3 031702Z 15007KT 32/19 A3008 RMK A01 T03230190  RH  045%=      5-min Rain = 0
KPD3 031703Z 17006KT 33/19 A3008 RMK A01 T03250186  RH  044%=      5-min Rain = 0
KPD3 031704Z 16004KT 32/18 A3008 RMK A01 T03240183  RH  043%=      5-min Rain = 0
KPD3 031705Z 13006KT 32/19 A3008 RMK A01 T03230186  RH  044%=      5-min Rain = 0
KPD3 031706Z 13004KT 32/18 A3008 RMK A01 T03230184  RH  044%=      5-min Rain = 0
KPD3 031707Z 13003KT 32/19 A3008 RMK A01 T03220187  RH  045%=      5-min Rain = 0
KPD3 031708Z 13002KT 32/19 A3008 RMK A01 T03230188  RH  045%=      5-min Rain = 0
KPD3 031709Z 00001KT 32/19 A3008 RMK A01 T03240185  RH  044%=      5-min Rain = 0
KPD3 031710Z 36001KT 32/19 A3008 RMK A01 T03230192  RH  046%=      5-min Rain = 0
KPD3 031711Z 16002KT 32/19 A3008 RMK A01 T03240185  RH  044%=      5-min Rain = 0
KPD3 031712Z 12004KT 33/19 A3008 RMK A01 T03250192  RH  045%=      5-min Rain = 0
KPD3 031713Z 09003KT 33/20 A3008 RMK A01 T03280195  RH  046%=      5-min Rain = 0
KPD3 031714Z 17002KT 33/20 A3008 RMK A01 T03300195  RH  045%=      5-min Rain = 0
KPD3 031715Z 16006KT 33/19 A3008 RMK A01 T03320193  RH  044%=      5-min Rain = 0
KPD3 031716Z 15005KT 33/19 A3008 RMK A01 T03340189  RH  042%=      5-min Rain = 0
KPD3 031717Z 17005KT 33/18 A3008 RMK A01 T03340182  RH  041%=      5-min Rain = 0
KPD3 031718Z 19005KT 33/18 A3008 RMK A01 T03320182  RH  041%=      5-min Rain = 0
KPD3 031719Z 22004KT 33/18 A3008 RMK A01 T03310184  RH  042%=      5-min Rain = 0
KPD3 031720Z 20003KT 33/19 A3008 RMK A01 T03280188  RH  044%=      5-min Rain = 0
KPD3 031721Z 22006KT 33/19 A3008 RMK A01 T03290186  RH  043%=      5-min Rain = 0
KPD3 031722Z 19007KT 33/19 A3008 RMK A01 T03280186  RH  043%=      5-min Rain = 0
KPD3 031723Z 21009KT 33/19 A3008 RMK A01 T03300185  RH  042%=      5-min Rain = 0
KPD3 031724Z 23005KT 33/18 A3008 RMK A01 T03300181  RH  041%=      5-min Rain = 0
KPD3 031725Z 22003KT 33/19 A3008 RMK A01 T03270186  RH  043%=      5-min Rain = 0
KPD3 031726Z 21003KT 33/18 A3008 RMK A01 T03270182  RH  042%=      5-min Rain = 0
KPD3 031727Z 25003KT 33/19 A3008 RMK A01 T03270185  RH  043%=      5-min Rain = 0
KPD3 031728Z 27005KT 33/19 A3008 RMK A01 T03290186  RH  043%=      5-min Rain = 0
KPD3 031729Z 27006KT 33/19 A3008 RMK A01 T03300186  RH  043%=      5-min Rain = 0
KPD3 031730Z 27006KT 33/18 A3008 RMK A01 T03290177  RH  040%=      5-min Rain = 0
KPD3 031731Z 27004KT 33/18 A3008 RMK A01 T03270178  RH  041%=      5-min Rain = 0
KPD3 031732Z 29004KT 33/18 A3008 RMK A01 T03260176  RH  041%=      5-min Rain = 0
KPD3 031733Z 30003KT 33/18 A3008 RMK A01 T03250179  RH  042%=      5-min Rain = 0
KPD3 031734Z 32003KT 33/18 A3008 RMK A01 T03260178  RH  041%=      5-min Rain = 0
KPD3 031735Z 05002KT 33/19 A3008 RMK A01 T03280190  RH  044%=      5-min Rain = 0
KPD3 031736Z 15005KT 33/19 A3008 RMK A01 T03320192  RH  044%=      5-min Rain = 0
KPD3 031737Z 15007KT 33/19 A3008 RMK A01 T03340190  RH  043%=      5-min Rain = 0
KPD3 031738Z 15007KT 33/19 A3008 RMK A01 T03340188  RH  042%=      5-min Rain = 0
KPD3 031739Z 12005KT 33/19 A3008 RMK A01 T03330187  RH  042%=      5-min Rain = 0
KPD3 031740Z 18005KT 33/19 A3008 RMK A01 T03310186  RH  042%=      5-min Rain = 0
KPD3 031741Z 19005KT 33/18 A3008 RMK A01 T03310184  RH  042%=      5-min Rain = 0
KPD3 031742Z 17003KT 33/18 A3008 RMK A01 T03300182  RH  041%=      5-min Rain = 0
KPD3 031743Z 13003KT 33/18 A3008 RMK A01 T03290184  RH  042%=      5-min Rain = 0
KPD3 031744Z 16002KT 33/18 A3008 RMK A01 T03290180  RH  041%=      5-min Rain = 0
KPD3 031745Z 25002KT 33/19 A3008 RMK A01 T03290185  RH  042%=      5-min Rain = 0
KPD3 031746Z 29002KT 33/18 A3008 RMK A01 T03300181  RH  041%=      5-min Rain = 0
KPD3 031747Z 34003KT 33/19 A3008 RMK A01 T03290186  RH  043%=      5-min Rain = 0
KPD3 031748Z 32002KT 33/19 A3007 RMK A01 T03290189  RH  044%=      5-min Rain = 0
KPD3 031749Z 31003KT 33/19 A3007 RMK A01 T03290186  RH  043%=      5-min Rain = 0
KPD3 031750Z 33003KT 33/19 A3007 RMK A01 T03290189  RH  044%=      5-min Rain = 0
KPD3 031751Z 32002KT 33/19 A3007 RMK A01 T03300186  RH  043%=      5-min Rain = 0
KPD3 031752Z 12002KT 33/19 A3007 RMK A01 T03300188  RH  043%=      5-min Rain = 0
KPD3 031753Z 13003KT 33/19 A3007 RMK A01 T03310186  RH  042%=      5-min Rain = 0
KPD3 031754Z 10004KT 33/18 A3007 RMK A01 T03320184  RH  041%=      5-min Rain = 0
KPD3 031755Z 11003KT 33/19 A3007 RMK A01 T03330188  RH  042%=      5-min Rain = 0
KPD3 031756Z 18005KT 33/19 A3007 RMK A01 T03340187  RH  042%=      5-min Rain = 0
KPD3 031757Z 17008KT 34/19 A3007 RMK A01 T03380191  RH  042%=      5-min Rain = 0
KPD3 031758Z 16003KT 34/18 A3007 RMK A01 T03390182  RH  039%=      5-min Rain = 0
KPD3 031759Z 19002KT 34/18 A3007 RMK A01 T03370184  RH  040%=      5-min Rain = 0
KPD3 031800Z 18004KT 34/18 A3007 RMK A01 T03360182  RH  040%=      5-min Rain = 0
KPD3 031801Z 14002KT 34/18 A3007 RMK A01 T03350179  RH  040%=      5-min Rain = 0
KPD3 031802Z 35002KT 33/18 A3007 RMK A01 T03330181  RH  040%=      5-min Rain = 0
KPD3 031803Z 22002KT 33/18 A3007 RMK A01 T03320183  RH  041%=      5-min Rain = 0
KPD3 031804Z 21004KT 33/19 A3007 RMK A01 T03330185  RH  042%=      5-min Rain = 0
KPD3 031805Z 20005KT 34/18 A3007 RMK A01 T03360182  RH  040%=      5-min Rain = 0
KPD3 031806Z 21003KT 34/18 A3007 RMK A01 T03370180  RH  040%=      5-min Rain = 0
KPD3 031807Z 25002KT 34/18 A3007 RMK A01 T03360182  RH  040%=      5-min Rain = 0
KPD3 031808Z 21003G8KT 34/19 A3007 RMK A01 T03360186  RH  041%=      5-min Rain = 0
KPD3 031809Z 19007KT 34/19 A3007 RMK A01 T03400189  RH  041%=      5-min Rain = 0
KPD3 031810Z 19005KT 34/19 A3007 RMK A01 T03430185  RH  039%=      5-min Rain = 0
KPD3 031811Z 21003KT 34/18 A3007 RMK A01 T03420182  RH  039%=      5-min Rain = 0
KPD3 031812Z 24004KT 34/18 A3007 RMK A01 T03410183  RH  039%=      5-min Rain = 0
KPD3 031813Z 24002KT 34/19 A3007 RMK A01 T03400185  RH  040%=      5-min Rain = 0
KPD3 031814Z 24002KT 34/19 A3007 RMK A01 T03400189  RH  041%=      5-min Rain = 0
KPD3 031815Z 18007KT 34/19 A3007 RMK A01 T03410185  RH  040%=      5-min Rain = 0
KPD3 031816Z 17008KT 34/18 A3007 RMK A01 T03440179  RH  038%=      5-min Rain = 0
KPD3 031817Z 18008KT 34/18 A3007 RMK A01 T03440180  RH  038%=      5-min Rain = 0
KPD3 031818Z 21007KT 34/18 A3007 RMK A01 T03440180  RH  038%=      5-min Rain = 0
KPD3 031819Z 21006KT 34/18 A3007 RMK A01 T03420177  RH  038%=      5-min Rain = 0
KPD3 031820Z 20003KT 34/18 A3007 RMK A01 T03400179  RH  039%=      5-min Rain = 0
KPD3 031821Z 22007KT 34/18 A3007 RMK A01 T03390177  RH  038%=      5-min Rain = 0
KPD3 031822Z 22006KT 34/18 A3007 RMK A01 T03390175  RH  038%=      5-min Rain = 0
KPD3 031823Z 23005KT 34/18 A3006 RMK A01 T03400175  RH  038%=      5-min Rain = 0
KPD3 031824Z 25004KT 34/17 A3006 RMK A01 T03410170  RH  036%=      5-min Rain = 0
KPD3 031825Z 25003KT 34/17 A3006 RMK A01 T03400171  RH  037%=      5-min Rain = 0
KPD3 031826Z 21005KT 34/18 A3006 RMK A01 T03400176  RH  038%=      5-min Rain = 0
KPD3 031827Z 24007KT 34/18 A3006 RMK A01 T03440177  RH  037%=      5-min Rain = 0
KPD3 031828Z 26006KT 35/18 A3006 RMK A01 T03460178  RH  037%=      5-min Rain = 0
KPD3 031829Z 30002KT 34/17 A3006 RMK A01 T03440174  RH  036%=      5-min Rain = 0
KPD3 031830Z 31002KT 34/18 A3006 RMK A01 T03420175  RH  037%=      5-min Rain = 0
KPD3 031831Z 35002KT 34/18 A3006 RMK A01 T03410176  RH  038%=      5-min Rain = 0
KPD3 031832Z 08002KT 34/18 A3006 RMK A01 T03400178  RH  038%=      5-min Rain = 0
KPD3 031833Z 13005KT 34/18 A3006 RMK A01 T03410178  RH  038%=      5-min Rain = 0
KPD3 031834Z 12007KT 34/18 A3006 RMK A01 T03430175  RH  037%=      5-min Rain = 0
KPD3 031835Z 14004KT 35/17 A3006 RMK A01 T03450173  RH  036%=      5-min Rain = 0
KPD3 031836Z 14005KT 35/18 A3006 RMK A01 T03460175  RH  036%=      5-min Rain = 0
KPD3 031837Z 11006KT 35/18 A3006 RMK A01 T03470176  RH  036%=      5-min Rain = 0
KPD3 031838Z 14007KT 35/17 A3006 RMK A01 T03470169  RH  035%=      5-min Rain = 0
KPD3 031839Z 13007KT 35/16 A3006 RMK A01 T03490163  RH  033%=      5-min Rain = 0
KPD3 031840Z 13008KT 35/16 A3006 RMK A01 T03530158  RH  031%=      5-min Rain = 0
KPD3 031841Z 17008KT 36/15 A3006 RMK A01 T03550154  RH  030%=      5-min Rain = 0
KPD3 031842Z 18008KT 36/16 A3006 RMK A01 T03570156  RH  030%=      5-min Rain = 0
KPD3 031843Z 18006KT 35/16 A3006 RMK A01 T03520158  RH  032%=      5-min Rain = 0
KPD3 031844Z 18004KT 35/16 A3006 RMK A01 T03490161  RH  033%=      5-min Rain = 0
KPD3 031845Z 18004KT 35/16 A3006 RMK A01 T03480162  RH  033%=      5-min Rain = 0
KPD3 031846Z 17002KT 35/16 A3006 RMK A01 T03480162  RH  033%=      5-min Rain = 0
KPD3 031847Z 17006KT 35/16 A3006 RMK A01 T03480163  RH  033%=      5-min Rain = 0
KPD3 031848Z 17008KT 35/16 A3006 RMK A01 T03490162  RH  033%=      5-min Rain = 0
KPD3 031849Z 18006KT 35/16 A3006 RMK A01 T03490164  RH  033%=      5-min Rain = 0
KPD3 031850Z 14006KT 35/17 A3006 RMK A01 T03500165  RH  033%=      5-min Rain = 0
KPD3 031851Z 13005KT 35/17 A3006 RMK A01 T03510169  RH  034%=      5-min Rain = 0
KPD3 031852Z 11006KT 35/17 A3006 RMK A01 T03520172  RH  035%=      5-min Rain = 0
KPD3 031853Z 13008KT 35/17 A3006 RMK A01 T03520168  RH  034%=      5-min Rain = 0
KPD3 031854Z 17006KT 35/17 A3006 RMK A01 T03510165  RH  033%=      5-min Rain = 0
KPD3 031855Z 18002KT 35/16 A3005 RMK A01 T03480163  RH  033%=      5-min Rain = 0
KPD3 031856Z 17003KT 35/17 A3005 RMK A01 T03460167  RH  034%=      5-min Rain = 0
KPD3 031857Z 16007KT 35/17 A3005 RMK A01 T03460166  RH  034%=      5-min Rain = 0
KPD3 031858Z 13008KT 35/17 A3005 RMK A01 T03450169  RH  035%=      5-min Rain = 0
KPD3 031859Z 16009KT 35/17 A3005 RMK A01 T03480171  RH  035%=      5-min Rain = 0
KPD3 031900Z 16011KT 35/17 A3005 RMK A01 T03540172  RH  034%=      5-min Rain = 0
KPD3 031901Z 15009KT 36/17 A3005 RMK A01 T03560168  RH  033%=      5-min Rain = 0
KPD3 031902Z 14007KT 36/17 A3005 RMK A01 T03550172  RH  034%=      5-min Rain = 0
KPD3 031903Z 15012KT 36/17 A3005 RMK A01 T03580171  RH  033%=      5-min Rain = 0
KPD3 031904Z 16011KT 36/17 A3005 RMK A01 T03600169  RH  032%=      5-min Rain = 0
KPD3 031905Z 16009KT 36/17 A3005 RMK A01 T03580165  RH  032%=      5-min Rain = 0
KPD3 031906Z 16007KT 36/17 A3005 RMK A01 T03550167  RH  033%=      5-min Rain = 0
KPD3 031907Z 16006KT 36/17 A3005 RMK A01 T03560167  RH  033%=      5-min Rain = 0
KPD3 031908Z 15004KT 36/17 A3005 RMK A01 T03560165  RH  032%=      5-min Rain = 0
KPD3 031909Z 11001KT 35/17 A3005 RMK A01 T03540172  RH  034%=      5-min Rain = 0
KPD3 031910Z 13004KT 35/17 A3005 RMK A01 T03540168  RH  033%=      5-min Rain = 0
KPD3 031911Z 12003KT 35/17 A3005 RMK A01 T03540168  RH  033%=      5-min Rain = 0
KPD3 031912Z 10003KT 35/17 A3005 RMK A01 T03540168  RH  033%=      5-min Rain = 0
KPD3 031913Z 12003KT 35/17 A3005 RMK A01 T03540166  RH  033%=      5-min Rain = 0
KPD3 031914Z 10004KT 35/17 A3005 RMK A01 T03530169  RH  034%=      5-min Rain = 0
KPD3 031915Z 10004KT 36/17 A3005 RMK A01 T03550167  RH  033%=      5-min Rain = 0
KPD3 031916Z 11002KT 35/16 A3005 RMK A01 T03530164  RH  033%=      5-min Rain = 0
KPD3 031917Z 08002KT 35/16 A3005 RMK A01 T03490161  RH  033%=      5-min Rain = 0
KPD3 031918Z 10005KT 35/17 A3005 RMK A01 T03470166  RH  034%=      5-min Rain = 0
KPD3 031919Z 15006KT 35/17 A3005 RMK A01 T03460165  RH  034%=      5-min Rain = 0
KPD3 031920Z 17006KT 35/16 A3005 RMK A01 T03470162  RH  033%=      5-min Rain = 0
KPD3 031921Z 19003KT 35/16 A3005 RMK A01 T03490161  RH  033%=      5-min Rain = 0
KPD3 031922Z 17004KT 35/17 A3005 RMK A01 T03520166  RH  033%=      5-min Rain = 0
KPD3 031923Z 19007KT 36/17 A3005 RMK A01 T03560165  RH  032%=      5-min Rain = 0
KPD3 031924Z 18006KT 36/16 A3005 RMK A01 T03570161  RH  031%=      5-min Rain = 0
KPD3 031925Z 19006KT 36/16 A3005 RMK A01 T03560161  RH  031%=      5-min Rain = 0
KPD3 031926Z 18004KT 36/17 A3005 RMK A01 T03560165  RH  032%=      5-min Rain = 0
KPD3 031927Z 20005KT 36/17 A3004 RMK A01 T03580166  RH  032%=      5-min Rain = 0
KPD3 031928Z 20008KT 36/17 A3004 RMK A01 T03620167  RH  032%=      5-min Rain = 0
KPD3 031929Z 16006KT 37/17 A3004 RMK A01 T03650170  RH  032%=      5-min Rain = 0
KPD3 031930Z 14007KT 37/17 A3004 RMK A01 T03680172  RH  032%=      5-min Rain = 0
KPD3 031931Z 15010KT 37/17 A3004 RMK A01 T03670172  RH  032%=      5-min Rain = 0
KPD3 031932Z 15010KT 36/17 A3004 RMK A01 T03630166  RH  031%=      5-min Rain = 0
KPD3 031933Z 13011KT 36/17 A3004 RMK A01 T03570169  RH  033%=      5-min Rain = 0
KPD3 031934Z 12010KT 35/17 A3004 RMK A01 T03540167  RH  033%=      5-min Rain = 0
KPD3 031935Z 12013KT 35/17 A3004 RMK A01 T03520166  RH  033%=      5-min Rain = 0
KPD3 031936Z 12009KT 35/17 A3004 RMK A01 T03500167  RH  034%=      5-min Rain = 0
KPD3 031937Z 13012KT 35/17 A3004 RMK A01 T03510167  RH  034%=      5-min Rain = 0
KPD3 031938Z 13011KT 35/17 A3004 RMK A01 T03520166  RH  033%=      5-min Rain = 0
KPD3 031939Z 14012KT 35/17 A3004 RMK A01 T03530165  RH  033%=      5-min Rain = 0
KPD3 031940Z 13011KT 35/17 A3004 RMK A01 T03530168  RH  033%=      5-min Rain = 0
KPD3 031941Z 14008KT 36/17 A3004 RMK A01 T03570168  RH  033%=      5-min Rain = 0
KPD3 031942Z 14009KT 36/17 A3004 RMK A01 T03590169  RH  033%=      5-min Rain = 0
KPD3 031943Z 14007KT 36/17 A3004 RMK A01 T03600166  RH  032%=      5-min Rain = 0
KPD3 031944Z 11003KT 36/16 A3004 RMK A01 T03600160  RH  031%=      5-min Rain = 0
KPD3 031945Z 15003KT 36/16 A3004 RMK A01 T03570164  RH  032%=      5-min Rain = 0
KPD3 031946Z 13006KT 36/17 A3004 RMK A01 T03560165  RH  032%=      5-min Rain = 0
KPD3 031947Z 15008KT 36/16 A3004 RMK A01 T03580164  RH  032%=      5-min Rain = 0
KPD3 031948Z 17007KT 36/16 A3004 RMK A01 T03590163  RH  031%=      5-min Rain = 0
KPD3 031949Z 18005KT 36/16 A3004 RMK A01 T03580163  RH  031%=      5-min Rain = 0
KPD3 031950Z 19004KT 36/16 A3004 RMK A01 T03560161  RH  031%=      5-min Rain = 0
KPD3 031951Z 21005KT 36/16 A3004 RMK A01 T03560163  RH  032%=      5-min Rain = 0
KPD3 031952Z 14003KT 36/17 A3004 RMK A01 T03590169  RH  032%=      5-min Rain = 0
KPD3 031953Z 14003KT 36/16 A3004 RMK A01 T03620164  RH  031%=      5-min Rain = 0
KPD3 031954Z 11007G13KT 36/17 A3004 RMK A01 T03630168  RH  032%=      5-min Rain = 0
KPD3 031955Z 11010KT 37/17 A3004 RMK A01 T03650165  RH  031%=      5-min Rain = 0
KPD3 031956Z 10008KT 36/17 A3004 RMK A01 T03640169  RH  032%=      5-min Rain = 0
KPD3 031957Z 10007KT 36/17 A3004 RMK A01 T03640170  RH  032%=      5-min Rain = 0
KPD3 031958Z 10008KT 37/17 A3004 RMK A01 T03660171  RH  032%=      5-min Rain = 0
KPD3 031959Z 10007KT 37/17 A3004 RMK A01 T03660166  RH  031%=      5-min Rain = 0
KPD3 032000Z 10006KT 36/16 A3003 RMK A01 T03610162  RH  031%=      5-min Rain = 0
KPD3 032001Z 12006KT 36/17 A3003 RMK A01 T03590166  RH  032%=      5-min Rain = 0
KPD3 032002Z 06006KT 36/17 A3003 RMK A01 T03600168  RH  032%=      5-min Rain = 0
KPD3 032003Z 03006KT 36/17 A3003 RMK A01 T03620165  RH  031%=      5-min Rain = 0
KPD3 032004Z 06003KT 36/16 A3003 RMK A01 T03610161  RH  031%=      5-min Rain = 0
KPD3 032005Z 33003KT 36/16 A3003 RMK A01 T03580160  RH  031%=      5-min Rain = 0
KPD3 032006Z 13003KT 36/16 A3003 RMK A01 T03570163  RH  032%=      5-min Rain = 0
KPD3 032007Z 15012KT 36/16 A3003 RMK A01 T03580161  RH  031%=      5-min Rain = 0
KPD3 032008Z 16009G14KT 36/15 A3003 RMK A01 T03600154  RH  029%=      5-min Rain = 0
KPD3 032009Z 21002KT 36/16 A3003 RMK A01 T03590155  RH  030%=      5-min Rain = 0
KPD3 032010Z 01002KT 36/16 A3003 RMK A01 T03580158  RH  030%=      5-min Rain = 0
KPD3 032011Z 06002KT 36/16 A3003 RMK A01 T03590157  RH  030%=      5-min Rain = 0
KPD3 032012Z 07003KT 36/16 A3003 RMK A01 T03590157  RH  030%=      5-min Rain = 0
KPD3 032013Z 09003KT 36/16 A3003 RMK A01 T03590161  RH  031%=      5-min Rain = 0
KPD3 032014Z 08007KT 36/16 A3003 RMK A01 T03610163  RH  031%=      5-min Rain = 0
KPD3 032015Z 10010KT 36/17 A3003 RMK A01 T03630165  RH  031%=      5-min Rain = 0
KPD3 032016Z 09011KT 37/17 A3003 RMK A01 T03660166  RH  031%=      5-min Rain = 0
KPD3 032017Z 09013KT 37/17 A3003 RMK A01 T03680168  RH  031%=      5-min Rain = 0
KPD3 032018Z 10012KT 37/17 A3003 RMK A01 T03660167  RH  031%=      5-min Rain = 0
KPD3 032019Z 11011KT 37/17 A3003 RMK A01 T03650165  RH  031%=      5-min Rain = 0
KPD3 032020Z 12009KT 37/16 A3002 RMK A01 T03650163  RH  030%=      5-min Rain = 0
KPD3 032021Z 09012G18KT 36/17 A3002 RMK A01 T03630165  RH  031%=      5-min Rain = 0
KPD3 032022Z 08014KT 36/16 A3002 RMK A01 T03600163  RH  031%=      5-min Rain = 0
KPD3 032023Z 08012KT 36/16 A3002 RMK A01 T03550161  RH  031%=      5-min Rain = 0
KPD3 032024Z 09013KT 35/16 A3002 RMK A01 T03540163  RH  032%=      5-min Rain = 0
KPD3 032025Z 10011KT 36/16 A3002 RMK A01 T03600160  RH  031%=      5-min Rain = 0
KPD3 032026Z 08009KT 36/16 A3002 RMK A01 T03630162  RH  030%=      5-min Rain = 0
KPD3 032027Z 07008KT 36/16 A3002 RMK A01 T03640164  RH  031%=      5-min Rain = 0
KPD3 032028Z 06007KT 36/16 A3002 RMK A01 T03620160  RH  030%=      5-min Rain = 0
KPD3 032029Z 06006KT 36/16 A3002 RMK A01 T03570159  RH  031%=      5-min Rain = 0
KPD3 032030Z 07003KT 35/16 A3002 RMK A01 T03530160  RH  032%=      5-min Rain = 0
KPD3 032031Z 07004KT 35/16 A3002 RMK A01 T03530163  RH  032%=      5-min Rain = 0
KPD3 032032Z 08007KT 36/17 A3002 RMK A01 T03560167  RH  033%=      5-min Rain = 0
KPD3 032033Z 07008KT 36/16 A3002 RMK A01 T03600160  RH  031%=      5-min Rain = 0
KPD3 032034Z 10008KT 36/17 A3002 RMK A01 T03620166  RH  031%=      5-min Rain = 0
KPD3 032035Z 11010KT 37/17 A3002 RMK A01 T03650165  RH  031%=      5-min Rain = 0
KPD3 032036Z 10011KT 37/16 A3002 RMK A01 T03700163  RH  029%=      5-min Rain = 0
KPD3 032037Z 12010KT 37/16 A3002 RMK A01 T03690161  RH  029%=      5-min Rain = 0
KPD3 032038Z 11009KT 37/16 A3002 RMK A01 T03670161  RH  030%=      5-min Rain = 0
KPD3 032039Z 10010KT 36/16 A3002 RMK A01 T03630160  RH  030%=      5-min Rain = 0
KPD3 032040Z 10008KT 36/16 A3002 RMK A01 T03580159  RH  031%=      5-min Rain = 0
KPD3 032041Z 11006KT 36/16 A3002 RMK A01 T03570159  RH  031%=      5-min Rain = 0
KPD3 032042Z 10007KT 36/16 A3002 RMK A01 T03570160  RH  031%=      5-min Rain = 0
KPD3 032043Z 09004KT 36/16 A3002 RMK A01 T03570159  RH  031%=      5-min Rain = 0
KPD3 032044Z 08006KT 36/16 A3002 RMK A01 T03560159  RH  031%=      5-min Rain = 0
KPD3 032045Z 13012G18KT 36/16 A3002 RMK A01 T03560160  RH  031%=      5-min Rain = 0
KPD3 032046Z 17006KT 36/16 A3002 RMK A01 T03610158  RH  030%=      5-min Rain = 0
KPD3 032047Z 15006KT 36/16 A3002 RMK A01 T03630158  RH  030%=      5-min Rain = 0
KPD3 032048Z 14007KT 36/16 A3002 RMK A01 T03640159  RH  030%=      5-min Rain = 0
KPD3 032049Z 13013G18KT 37/16 A3002 RMK A01 T03670160  RH  029%=      5-min Rain = 0
KPD3 032050Z 12012KT 37/16 A3002 RMK A01 T03680158  RH  029%=      5-min Rain = 0
KPD3 032051Z 15013KT 37/16 A3002 RMK A01 T03700162  RH  029%=      5-min Rain = 0
KPD3 032052Z 16012KT 37/16 A3002 RMK A01 T03720156  RH  028%=      5-min Rain = 0
KPD3 032053Z 16009KT 37/16 A3002 RMK A01 T03690157  RH  028%=      5-min Rain = 0
KPD3 032054Z 13007KT 37/16 A3002 RMK A01 T03670155  RH  028%=      5-min Rain = 0
KPD3 032055Z 09007KT 37/16 A3002 RMK A01 T03670160  RH  029%=      5-min Rain = 0
KPD3 032056Z 10006KT 37/16 A3002 RMK A01 T03680157  RH  029%=      5-min Rain = 0
KPD3 032057Z 10007KT 37/16 A3002 RMK A01 T03680160  RH  029%=      5-min Rain = 0
KPD3 032058Z 11006KT 37/16 A3002 RMK A01 T03660156  RH  029%=      5-min Rain = 0
KPD3 032059Z 13007KT 36/16 A3001 RMK A01 T03620155  RH  029%=      5-min Rain = 0
KPD3 032100Z 14008KT 36/16 A3002 RMK A01 T03600157  RH  030%=      5-min Rain = 0
KPD3 032101Z 13013KT 36/16 A3002 RMK A01 T03590158  RH  030%=      5-min Rain = 0
KPD3 032102Z 14011KT 36/16 A3002 RMK A01 T03580155  RH  030%=      5-min Rain = 0
KPD3 032103Z 14010KT 36/16 A3001 RMK A01 T03570155  RH  030%=      5-min Rain = 0
KPD3 032104Z 12008KT 36/16 A3001 RMK A01 T03580155  RH  030%=      5-min Rain = 0
KPD3 032105Z 11008G13KT 36/16 A3001 RMK A01 T03600161  RH  031%=      5-min Rain = 0
KPD3 032106Z 10012G17KT 37/17 A3001 RMK A01 T03670165  RH  030%=      5-min Rain = 0
KPD3 032107Z 09011KT 37/16 A3001 RMK A01 T03720160  RH  029%=      5-min Rain = 0
KPD3 032108Z 10009KT 37/16 A3001 RMK A01 T03710158  RH  028%=      5-min Rain = 0
KPD3 032109Z 12010KT 37/16 A3001 RMK A01 T03700156  RH  028%=      5-min Rain = 0
KPD3 032110Z 09010KT 37/16 A3001 RMK A01 T03700159  RH  029%=      5-min Rain = 0
KPD3 032111Z 10008KT 37/16 A3001 RMK A01 T03700158  RH  029%=      5-min Rain = 0
KPD3 032112Z 10009KT 37/16 A3001 RMK A01 T03700159  RH  029%=      5-min Rain = 0
KPD3 032113Z 11009KT 37/16 A3001 RMK A01 T03720161  RH  029%=      5-min Rain = 0
KPD3 032114Z 11008KT 37/16 A3001 RMK A01 T03740159  RH  028%=      5-min Rain = 0
KPD3 032115Z 13011KT 38/16 A3001 RMK A01 T03750157  RH  028%=      5-min Rain = 0
KPD3 032116Z 12009KT 37/16 A3001 RMK A01 T03720155  RH  028%=      5-min Rain = 0
KPD3 032117Z 12014KT 37/16 A3001 RMK A01 T03700157  RH  028%=      5-min Rain = 0
KPD3 032118Z 12013KT 37/16 A3001 RMK A01 T03720156  RH  028%=      5-min Rain = 0
KPD3 032119Z 11012KT 37/16 A3001 RMK A01 T03720156  RH  028%=      5-min Rain = 0
KPD3 032120Z 11013KT 37/16 A3001 RMK A01 T03720155  RH  028%=      5-min Rain = 0
KPD3 032121Z 12013KT 37/15 A3001 RMK A01 T03710154  RH  028%=      5-min Rain = 0
KPD3 032122Z 11008KT 37/16 A3001 RMK A01 T03700155  RH  028%=      5-min Rain = 0
KPD3 032123Z 09004KT 37/15 A3001 RMK A01 T03680152  RH  028%=      5-min Rain = 0
KPD3 032124Z 09006KT 37/16 A3001 RMK A01 T03670156  RH  029%=      5-min Rain = 0
KPD3 032125Z 07006KT 37/16 A3001 RMK A01 T03660155  RH  029%=      5-min Rain = 0
KPD3 032126Z 07006KT 36/15 A3001 RMK A01 T03630153  RH  029%=      5-min Rain = 0
KPD3 032127Z 06005KT 36/15 A3001 RMK A01 T03610152  RH  029%=      5-min Rain = 0
KPD3 032128Z 08006KT 36/15 A3001 RMK A01 T03590154  RH  030%=      5-min Rain = 0
KPD3 032129Z 08007KT 36/15 A3001 RMK A01 T03570154  RH  030%=      5-min Rain = 0
KPD3 032130Z 08007KT 36/15 A3001 RMK A01 T03560153  RH  030%=      5-min Rain = 0
KPD3 032131Z 07006KT 36/15 A3001 RMK A01 T03550154  RH  030%=      5-min Rain = 0
KPD3 032132Z 08008KT 35/15 A3001 RMK A01 T03540154  RH  030%=      5-min Rain = 0
KPD3 032133Z 09011G16KT 35/16 A3001 RMK A01 T03540155  RH  031%=      5-min Rain = 0
KPD3 032134Z 10014KT 35/15 A3001 RMK A01 T03540153  RH  030%=      5-min Rain = 0
KPD3 032135Z 10012KT 35/15 A3001 RMK A01 T03540151  RH  030%=      5-min Rain = 0
KPD3 032136Z 10010KT 35/15 A3001 RMK A01 T03540150  RH  030%=      5-min Rain = 0
KPD3 032137Z 09011KT 35/15 A3001 RMK A01 T03540153  RH  030%=      5-min Rain = 0
KPD3 032138Z 11011KT 35/15 A30 RMK A01 T03540152  RH  030%=      5-min Rain = 0
KPD3 032139Z 12010KT 35/16 A3001 RMK A01 T03540155  RH  030%=      5-min Rain = 0
KPD3 032140Z 12010KT 36/16 A3001 RMK A01 T03560155  RH  030%=      5-min Rain = 0
KPD3 032141Z 11010KT 36/15 A3001 RMK A01 T03570152  RH  029%=      5-min Rain = 0
KPD3 032142Z 09010KT 36/15 A30 RMK A01 T03570153  RH  030%=      5-min Rain = 0
KPD3 032143Z 10010KT 36/15 A30 RMK A01 T03560150  RH  029%=      5-min Rain = 0
KPD3 032144Z 11011KT 36/15 A30 RMK A01 T03560150  RH  029%=      5-min Rain = 0
KPD3 032145Z 12010KT 36/15 A30 RMK A01 T03560151  RH  030%=      5-min Rain = 0
KPD3 032146Z 13010KT 36/15 A30 RMK A01 T03580149  RH  029%=      5-min Rain = 0
KPD3 032147Z 11009KT 36/15 A30 RMK A01 T03580149  RH  029%=      5-min Rain = 0
KPD3 032148Z 11008KT 36/15 A30 RMK A01 T03580148  RH  029%=      5-min Rain = 0
KPD3 032149Z 12007KT 36/15 A30 RMK A01 T03570147  RH  029%=      5-min Rain = 0
KPD3 032150Z 12005KT 36/15 A30 RMK A01 T03560147  RH  029%=      5-min Rain = 0
KPD3 032151Z 10008KT 36/15 A30 RMK A01 T03570150  RH  029%=      5-min Rain = 0
KPD3 032152Z 09006KT 36/15 A30 RMK A01 T03580149  RH  029%=      5-min Rain = 0
KPD3 032153Z 09006KT 36/15 A30 RMK A01 T03570151  RH  029%=      5-min Rain = 0
KPD3 032154Z 11010KT 36/15 A30 RMK A01 T03560153  RH  030%=      5-min Rain = 0
KPD3 032155Z 11011KT 36/15 A30 RMK A01 T03570151  RH  029%=      5-min Rain = 0
KPD3 032156Z 11009KT 36/15 A30 RMK A01 T03570153  RH  030%=      5-min Rain = 0
KPD3 032157Z 10012KT 36/15 A30 RMK A01 T03560153  RH  030%=      5-min Rain = 0
KPD3 032158Z 10009KT 36/15 A30 RMK A01 T03550153  RH  030%=      5-min Rain = 0
KPD3 032159Z 10011KT 36/16 A30 RMK A01 T03550156  RH  031%=      5-min Rain = 0
KPD3 032200Z 12013KT 35/16 A30 RMK A01 T03540155  RH  031%=      5-min Rain = 0
KPD3 032201Z 14010KT 35/15 A30 RMK A01 T03540154  RH  030%=      5-min Rain = 0
KPD3 032202Z 14012KT 35/15 A30 RMK A01 T03540153  RH  030%=      5-min Rain = 0
KPD3 032203Z 14013KT 35/15 A30 RMK A01 T03540153  RH  030%=      5-min Rain = 0
KPD3 032204Z 13010KT 36/15 A30 RMK A01 T03550153  RH  030%=      5-min Rain = 0
KPD3 032205Z 11011KT 35/15 A30 RMK A01 T03540154  RH  030%=      5-min Rain = 0
KPD3 032206Z 10011KT 35/16 A30 RMK A01 T03540157  RH  031%=      5-min Rain = 0
KPD3 032207Z 12011KT 35/15 A30 RMK A01 T03540154  RH  030%=      5-min Rain = 0
KPD3 032208Z 12011KT 35/15 A30 RMK A01 T03530151  RH  030%=      5-min Rain = 0
KPD3 032209Z 11011KT 35/15 A30 RMK A01 T03530152  RH  030%=      5-min Rain = 0
KPD3 032210Z 11009KT 35/15 A30 RMK A01 T03520152  RH  030%=      5-min Rain = 0
KPD3 032211Z 11011KT 35/16 A30 RMK A01 T03530155  RH  031%=      5-min Rain = 0
KPD3 032212Z 11011KT 35/15 A30 RMK A01 T03530152  RH  030%=      5-min Rain = 0
KPD3 032213Z 11011KT 35/15 A30 RMK A01 T03530153  RH  030%=      5-min Rain = 0
KPD3 032214Z 12009KT 35/15 A30 RMK A01 T03530152  RH  030%=      5-min Rain = 0
KPD3 032215Z 12008KT 35/15 A30 RMK A01 T03530153  RH  030%=      5-min Rain = 0
KPD3 032216Z 13007KT 35/16 A30 RMK A01 T03530155  RH  031%=      5-min Rain = 0
KPD3 032217Z 12007KT 35/16 A30 RMK A01 T03530158  RH  031%=      5-min Rain = 0
KPD3 032218Z 11009KT 35/16 A30 RMK A01 T03540156  RH  031%=      5-min Rain = 0
KPD3 032219Z 10010KT 35/16 A30 RMK A01 T03540155  RH  031%=      5-min Rain = 0
KPD3 032220Z 11008KT 35/15 A30 RMK A01 T03520154  RH  031%=      5-min Rain = 0
KPD3 032221Z 11008KT 35/16 A30 RMK A01 T03520157  RH  031%=      5-min Rain = 0
KPD3 032222Z 12010KT 35/16 A30 RMK A01 T03520156  RH  031%=      5-min Rain = 0
KPD3 032223Z 13011KT 35/16 A30 RMK A01 T03520155  RH  031%=      5-min Rain = 0
KPD3 032224Z 12011KT 35/15 A30 RMK A01 T03520153  RH  030%=      5-min Rain = 0
KPD3 032225Z 13010KT 35/15 A30 RMK A01 T03520153  RH  031%=      5-min Rain = 0
KPD3 032226Z 14010KT 35/15 A30 RMK A01 T03510154  RH  031%=      5-min Rain = 0
KPD3 032227Z 14008KT 35/15 A30 RMK A01 T03510153  RH  031%=      5-min Rain = 0
KPD3 032228Z 12009KT 35/16 A30 RMK A01 T03510155  RH  031%=      5-min Rain = 0
KPD3 032229Z 12013KT 35/15 A30 RMK A01 T03520153  RH  031%=      5-min Rain = 0
KPD3 032230Z 12014KT 35/15 A30 RMK A01 T03520151  RH  030%=      5-min Rain = 0
KPD3 032231Z 12011KT 35/15 A30 RMK A01 T03520151  RH  030%=      5-min Rain = 0
KPD3 032232Z 12011KT 35/15 A30 RMK A01 T03520150  RH  030%=      5-min Rain = 0
KPD3 032233Z 12011KT 35/15 A30 RMK A01 T03510150  RH  030%=      5-min Rain = 0
KPD3 032234Z 13009KT 35/15 A30 RMK A01 T03510149  RH  030%=      5-min Rain = 0
KPD3 032235Z 14008KT 35/15 A30 RMK A01 T03510152  RH  030%=      5-min Rain = 0
KPD3 032236Z 14009KT 35/15 A30 RMK A01 T03510148  RH  030%=      5-min Rain = 0
KPD3 032237Z 13007KT 35/15 A30 RMK A01 T03520151  RH  030%=      5-min Rain = 0
KPD3 032238Z 13006KT 35/15 A2999 RMK A01 T03520151  RH  030%=      5-min Rain = 0
KPD3 032239Z 13005KT 35/15 A2999 RMK A01 T03530151  RH  030%=      5-min Rain = 0
KPD3 032240Z 14006KT 35/15 A2999 RMK A01 T03540152  RH  030%=      5-min Rain = 0
KPD3 032241Z 16008KT 36/16 A2999 RMK A01 T03550155  RH  031%=      5-min Rain = 0
KPD3 032242Z 15011KT 36/15 A2999 RMK A01 T03580154  RH  030%=      5-min Rain = 0
KPD3 032243Z 15010KT 36/15 A2999 RMK A01 T03620153  RH  029%=      5-min Rain = 0
KPD3 032244Z 13012KT 37/16 A2999 RMK A01 T03650155  RH  029%=      5-min Rain = 0
KPD3 032245Z 12011KT 37/15 A2999 RMK A01 T03670153  RH  028%=      5-min Rain = 0
KPD3 032246Z 12010KT 37/16 A2999 RMK A01 T03660155  RH  029%=      5-min Rain = 0
KPD3 032247Z 13013KT 37/15 A2999 RMK A01 T03650153  RH  028%=      5-min Rain = 0
KPD3 032248Z 13012KT 36/15 A2999 RMK A01 T03620153  RH  029%=      5-min Rain = 0
KPD3 032249Z 13011KT 36/15 A2999 RMK A01 T03580152  RH  029%=      5-min Rain = 0
KPD3 032250Z 13012KT 36/15 A2999 RMK A01 T03560152  RH  030%=      5-min Rain = 0
KPD3 032251Z 11011KT 35/15 A2999 RMK A01 T03540151  RH  030%=      5-min Rain = 0
KPD3 032252Z 12012KT 35/15 A2999 RMK A01 T03530152  RH  030%=      5-min Rain = 0
KPD3 032253Z 20015KT 36/16 A2999 RMK A01 T03550162  RH  032%=      5-min Rain = 0
KPD3 032254Z 20013KT 36/16 A2999 RMK A01 T03580163  RH  031%=      5-min Rain = 0
KPD3 032255Z 21010KT 36/16 A2999 RMK A01 T03580161  RH  031%=      5-min Rain = 0
KPD3 032256Z 20012KT 36/16 A2999 RMK A01 T03560162  RH  032%=      5-min Rain = 0
KPD3 032257Z 18012KT 36/16 A2999 RMK A01 T03560159  RH  031%=      5-min Rain = 0
KPD3 032258Z 19011KT 36/16 A2999 RMK A01 T03550161  RH  032%=      5-min Rain = 0
KPD3 032259Z 20009KT 36/16 A2999 RMK A01 T03550160  RH  031%=      5-min Rain = 0
KPD3 032300Z 19010KT 36/16 A2999 RMK A01 T03560161  RH  032%=      5-min Rain = 0
KPD3 032301Z 20010KT 36/16 A2999 RMK A01 T03590160  RH  031%=      5-min Rain = 0
KPD3 032302Z 20009KT 36/16 A2999 RMK A01 T03590163  RH  031%=      5-min Rain = 0
KPD3 032303Z 19013KT 36/16 A2999 RMK A01 T03610162  RH  031%=      5-min Rain = 0
KPD3 032304Z 20013KT 36/16 A2999 RMK A01 T03620160  RH  030%=      5-min Rain = 0
KPD3 032305Z 21010KT 36/16 A2999 RMK A01 T03620162  RH  031%=      5-min Rain = 0
KPD3 032306Z 21009KT 36/16 A2999 RMK A01 T03620160  RH  030%=      5-min Rain = 0
KPD3 032307Z 20007KT 36/17 A2999 RMK A01 T03620165  RH  031%=      5-min Rain = 0
KPD3 032308Z 19011KT 37/16 A2999 RMK A01 T03650164  RH  031%=      5-min Rain = 0
KPD3 032309Z 18011KT 37/16 A2999 RMK A01 T03660159  RH  029%=      5-min Rain = 0
KPD3 032310Z 19006KT 36/16 A2999 RMK A01 T03620159  RH  030%=      5-min Rain = 0
KPD3 032311Z 20010KT 36/16 A2999 RMK A01 T03600159  RH  030%=      5-min Rain = 0
KPD3 032312Z 20011KT 36/16 A2999 RMK A01 T03610160  RH  030%=      5-min Rain = 0
KPD3 032313Z 19009KT 36/16 A2999 RMK A01 T03640159  RH  030%=      5-min Rain = 0
KPD3 032314Z 20011G16KT 36/16 A2998 RMK A01 T03630161  RH  030%=      5-min Rain = 0
KPD3 032315Z 19012KT 36/16 A2998 RMK A01 T03620159  RH  030%=      5-min Rain = 0
KPD3 032316Z 19012KT 36/16 A2998 RMK A01 T03620157  RH  030%=      5-min Rain = 0
KPD3 032317Z 20010KT 36/16 A2998 RMK A01 T03610157  RH  030%=      5-min Rain = 0
KPD3 032318Z 18009KT 36/16 A2999 RMK A01 T03600158  RH  030%=      5-min Rain = 0
KPD3 032319Z 19009KT 36/16 A2998 RMK A01 T03590156  RH  030%=      5-min Rain = 0
KPD3 032320Z 20007KT 36/16 A2998 RMK A01 T03580158  RH  030%=      5-min Rain = 0
KPD3 032321Z 19008KT 36/16 A2998 RMK A01 T03580159  RH  031%=      5-min Rain = 0
KPD3 032322Z 20009KT 36/16 A2998 RMK A01 T03590156  RH  030%=      5-min Rain = 0
KPD3 032323Z 17009KT 36/16 A2998 RMK A01 T03580157  RH  030%=      5-min Rain = 0
KPD3 032324Z 17010KT 36/16 A2998 RMK A01 T03580158  RH  030%=      5-min Rain = 0
KPD3 032325Z 17012G17KT 36/16 A2998 RMK A01 T03600157  RH  030%=      5-min Rain = 0
KPD3 032326Z 16014KT 36/15 A2998 RMK A01 T03600153  RH  029%=      5-min Rain = 0
KPD3 032327Z 16012KT 36/15 A2998 RMK A01 T03590153  RH  029%=      5-min Rain = 0
KPD3 032328Z 17011KT 36/15 A2998 RMK A01 T03580152  RH  029%=      5-min Rain = 0
KPD3 032329Z 18012KT 36/15 A2998 RMK A01 T03580152  RH  029%=      5-min Rain = 0
KPD3 032330Z 18010KT 36/15 A2998 RMK A01 T03560151  RH  029%=      5-min Rain = 0
KPD3 032331Z 17014KT 36/15 A2998 RMK A01 T03560153  RH  030%=      5-min Rain = 0
KPD3 032332Z 15011KT 36/15 A2998 RMK A01 T03570151  RH  029%=      5-min Rain = 0
KPD3 032333Z 15011KT 36/15 A2998 RMK A01 T03570151  RH  029%=      5-min Rain = 0
KPD3 032334Z 15009KT 36/15 A2998 RMK A01 T03570153  RH  030%=      5-min Rain = 0
KPD3 032335Z 15013KT 36/15 A2998 RMK A01 T03590154  RH  030%=      5-min Rain = 0
KPD3 032336Z 17011KT 36/15 A2998 RMK A01 T03590153  RH  029%=      5-min Rain = 0
KPD3 032337Z 16011KT 36/15 A2998 RMK A01 T03590154  RH  030%=      5-min Rain = 0
KPD3 032338Z 16009KT 36/15 A2998 RMK A01 T03590154  RH  030%=      5-min Rain = 0
KPD3 032339Z 16009KT 36/15 A2998 RMK A01 T03580154  RH  030%=      5-min Rain = 0
KPD3 032340Z 17008KT 36/15 A2998 RMK A01 T03580152  RH  029%=      5-min Rain = 0
KPD3 032341Z 18008KT 36/15 A2998 RMK A01 T03570154  RH  030%=      5-min Rain = 0
KPD3 032342Z 18007KT 36/15 A2998 RMK A01 T03580153  RH  030%=      5-min Rain = 0
KPD3 032343Z 18010KT 36/15 A2998 RMK A01 T03580154  RH  030%=      5-min Rain = 0
KPD3 032344Z 16009KT 36/15 A2998 RMK A01 T03580152  RH  029%=      5-min Rain = 0
KPD3 032345Z 14008KT 36/15 A2997 RMK A01 T03580154  RH  030%=      5-min Rain = 0
KPD3 032346Z 14008KT 36/16 A2997 RMK A01 T03590155  RH  030%=      5-min Rain = 0
KPD3 032347Z 14007KT 36/15 A2997 RMK A01 T03600151  RH  029%=      5-min Rain = 0
KPD3 032348Z 14009KT 36/15 A2997 RMK A01 T03600153  RH  029%=      5-min Rain = 0
KPD3 032349Z 14012KT 36/15 A2997 RMK A01 T03600151  RH  029%=      5-min Rain = 0
KPD3 032350Z 14012KT 36/15 A2997 RMK A01 T03600151  RH  029%=      5-min Rain = 0
KPD3 032351Z 13011KT 36/15 A2998 RMK A01 T03590152  RH  029%=      5-min Rain = 0
KPD3 032352Z 13010KT 36/15 A2997 RMK A01 T03590152  RH  029%=      5-min Rain = 0
KPD3 032353Z 13012KT 36/15 A2998 RMK A01 T03590152  RH  029%=      5-min Rain = 0
KPD3 032354Z 14009KT 36/15 A2997 RMK A01 T03590152  RH  029%=      5-min Rain = 0
KPD3 032355Z 13010G16KT 36/15 A2997 RMK A01 T03590151  RH  029%=      5-min Rain = 0
KPD3 032356Z 11012KT 36/15 A2997 RMK A01 T03580150  RH  029%=      5-min Rain = 0
KPD3 032357Z 12011KT 36/15 A2997 RMK A01 T03570150  RH  029%=      5-min Rain = 0
KPD3 032358Z 13013KT 36/15 A2997 RMK A01 T03570150  RH  029%=      5-min Rain = 0
KPD3 032359Z 12011KT 36/15 A2997 RMK A01 T03560149  RH  029%=      5-min Rain = 0
KPD3 040000Z 12011KT 36/15 A2998 RMK A01 T03560150  RH  029%=      5-min Rain = 0
KPD3 040001Z 12011KT 36/15 A2997 RMK A01 T03570151  RH  029%=      5-min Rain = 0
KPD3 040002Z 13010KT 36/15 A2998 RMK A01 T03580154  RH  030%=      5-min Rain = 0
KPD3 040003Z 15012KT 36/15 A2998 RMK A01 T03600153  RH  029%=      5-min Rain = 0
KPD3 040004Z 15012KT 36/15 A2998 RMK A01 T03600149  RH  028%=      5-min Rain = 0
KPD3 040005Z 15010KT 36/15 A2998 RMK A01 T03590148  RH  028%=      5-min Rain = 0
KPD3 040006Z 15009KT 36/15 A2998 RMK A01 T03580150  RH  029%=      5-min Rain = 0
KPD3 040007Z 15013KT 36/15 A2998 RMK A01 T03580149  RH  029%=      5-min Rain = 0
KPD3 040008Z 15014KT 36/15 A2998 RMK A01 T03580149  RH  029%=      5-min Rain = 0
KPD3 040009Z 15011KT 36/15 A2998 RMK A01 T03570150  RH  029%=      5-min Rain = 0
KPD3 040010Z 15011KT 36/15 A2998 RMK A01 T03570150  RH  029%=      5-min Rain = 0
KPD3 040011Z 15010KT 36/15 A2998 RMK A01 T03570147  RH  029%=      5-min Rain = 0
KPD3 040012Z 16012KT 36/15 A2998 RMK A01 T03570147  RH  029%=      5-min Rain = 0
KPD3 040013Z 16010KT 36/15 A2998 RMK A01 T03560148  RH  029%=      5-min Rain = 0
KPD3 040014Z 15008KT 36/15 A2998 RMK A01 T03560149  RH  029%=      5-min Rain = 0
KPD3 040015Z 15007KT 36/15 A2998 RMK A01 T03560152  RH  030%=      5-min Rain = 0
KPD3 040016Z 16009KT 36/15 A2998 RMK A01 T03560148  RH  029%=      5-min Rain = 0
KPD3 040017Z 16009KT 36/15 A2998 RMK A01 T03560150  RH  029%=      5-min Rain = 0
KPD3 040018Z 16012KT 36/15 A2998 RMK A01 T03570149  RH  029%=      5-min Rain = 0
KPD3 040019Z 15009KT 36/15 A2998 RMK A01 T03570149  RH  029%=      5-min Rain = 0
KPD3 040020Z 17009KT 36/15 A2998 RMK A01 T03570150  RH  029%=      5-min Rain = 0
KPD3 040021Z 15010KT 36/15 A2998 RMK A01 T03570152  RH  029%=      5-min Rain = 0
KPD3 040022Z 14011KT 36/15 A2998 RMK A01 T03570149  RH  029%=      5-min Rain = 0
KPD3 040023Z 15010KT 36/15 A2999 RMK A01 T03560150  RH  029%=      5-min Rain = 0
KPD3 040024Z 15009KT 36/15 A2999 RMK A01 T03560152  RH  030%=      5-min Rain = 0
KPD3 040025Z 15011KT 36/15 A2999 RMK A01 T03550151  RH  030%=      5-min Rain = 0
KPD3 040026Z 14012KT 36/15 A2999 RMK A01 T03550148  RH  029%=      5-min Rain = 0
KPD3 040027Z 14010KT 35/15 A2999 RMK A01 T03530148  RH  029%=      5-min Rain = 0
KPD3 040028Z 15009KT 35/15 A2999 RMK A01 T03530150  RH  030%=      5-min Rain = 0
KPD3 040029Z 14010KT 35/15 A2999 RMK A01 T03530151  RH  030%=      5-min Rain = 0
KPD3 040030Z 14009KT 35/15 A2999 RMK A01 T03530150  RH  030%=      5-min Rain = 0
KPD3 040031Z 15008KT 35/15 A2999 RMK A01 T03530150  RH  030%=      5-min Rain = 0
KPD3 040032Z 14007KT 35/15 A2999 RMK A01 T03530149  RH  030%=      5-min Rain = 0
KPD3 040033Z 14008KT 35/15 A2999 RMK A01 T03520150  RH  030%=      5-min Rain = 0
KPD3 040034Z 13009KT 35/15 A2999 RMK A01 T03520151  RH  030%=      5-min Rain = 0
KPD3 040035Z 12009KT 35/15 A2999 RMK A01 T03520151  RH  030%=      5-min Rain = 0
KPD3 040036Z 13008KT 35/15 A2999 RMK A01 T03520151  RH  030%=      5-min Rain = 0
KPD3 040037Z 14010KT 35/15 A2999 RMK A01 T03510150  RH  030%=      5-min Rain = 0
KPD3 040038Z 15011KT 35/15 A2999 RMK A01 T03510150  RH  030%=      5-min Rain = 0
KPD3 040039Z 14009KT 35/15 A2999 RMK A01 T03500149  RH  030%=      5-min Rain = 0
KPD3 040040Z 14009KT 35/15 A2999 RMK A01 T03490151  RH  031%=      5-min Rain = 0
KPD3 040041Z 14010KT 35/15 A2999 RMK A01 T03490149  RH  030%=      5-min Rain = 0
KPD3 040042Z 14010KT 35/15 A2999 RMK A01 T03480148  RH  030%=      5-min Rain = 0
KPD3 040043Z 14008KT 35/15 A2999 RMK A01 T03480148  RH  030%=      5-min Rain = 0
KPD3 040044Z 14008KT 35/15 A2999 RMK A01 T03480150  RH  031%=      5-min Rain = 0
KPD3 040045Z 13010KT 35/15 A2999 RMK A01 T03480149  RH  030%=      5-min Rain = 0
KPD3 040046Z 14009KT 35/15 A2999 RMK A01 T03480149  RH  030%=      5-min Rain = 0
KPD3 040047Z 14007KT 35/15 A2999 RMK A01 T03480151  RH  031%=      5-min Rain = 0
KPD3 040048Z 14008KT 35/15 A2999 RMK A01 T03480154  RH  031%=      5-min Rain = 0
KPD3 040049Z 14008KT 35/15 A2999 RMK A01 T03480152  RH  031%=      5-min Rain = 0
KPD3 040050Z 14007KT 35/15 A2999 RMK A01 T03480154  RH  031%=      5-min Rain = 0
KPD3 040051Z 15010KT 35/15 A2999 RMK A01 T03470151  RH  031%=      5-min Rain = 0
KPD3 040052Z 14010KT 35/15 A2999 RMK A01 T03470150  RH  031%=      5-min Rain = 0
KPD3 040053Z 14010KT 35/15 A2999 RMK A01 T03470150  RH  031%=      5-min Rain = 0
KPD3 040054Z 14009KT 35/15 A2999 RMK A01 T03470154  RH  032%=      5-min Rain = 0
KPD3 040055Z 13011KT 35/15 A2999 RMK A01 T03460149  RH  031%=      5-min Rain = 0
KPD3 040056Z 13009KT 35/15 A2999 RMK A01 T03450150  RH  031%=      5-min Rain = 0
KPD3 040057Z 13009KT 34/15 A2999 RMK A01 T03440151  RH  032%=      5-min Rain = 0
KPD3 040058Z 14010KT 34/15 A2999 RMK A01 T03420149  RH  031%=      5-min Rain = 0
KPD3 040059Z 14008KT 34/15 A2999 RMK A01 T03410149  RH  032%=      5-min Rain = 0
KPD3 040100Z 13009KT 34/15 A2999 RMK A01 T03400151  RH  032%=      5-min Rain = 0
KPD3 040101Z 14009KT 34/15 A2999 RMK A01 T03390148  RH  032%=      5-min Rain = 0
KPD3 040102Z 14008KT 34/15 A2999 RMK A01 T03390149  RH  032%=      5-min Rain = 0
KPD3 040103Z 14009KT 34/15 A2999 RMK A01 T03380150  RH  032%=      5-min Rain = 0
KPD3 040104Z 14008KT 34/15 A2999 RMK A01 T03370149  RH  032%=      5-min Rain = 0
KPD3 040105Z 14009KT 34/15 A2999 RMK A01 T03360150  RH  033%=      5-min Rain = 0
KPD3 040106Z 13009KT 34/15 A2999 RMK A01 T03360150  RH  033%=      5-min Rain = 0
KPD3 040107Z 13010KT 34/15 A2999 RMK A01 T03350150  RH  033%=      5-min Rain = 0
KPD3 040108Z 13009KT 34/15 A2999 RMK A01 T03350150  RH  033%=      5-min Rain = 0
KPD3 040109Z 13009KT 33/15 A2999 RMK A01 T03340151  RH  033%=      5-min Rain = 0
KPD3 040110Z 13009KT 33/15 A2999 RMK A01 T03330151  RH  033%=      5-min Rain = 0
KPD3 040111Z 12009KT 33/15 A2999 RMK A01 T03320151  RH  034%=      5-min Rain = 0
KPD3 040112Z 12010KT 33/15 A2999 RMK A01 T03320152  RH  034%=      5-min Rain = 0
KPD3 040113Z 13011KT 33/15 A2999 RMK A01 T03320152  RH  034%=      5-min Rain = 0
KPD3 040114Z 13009KT 33/15 A2999 RMK A01 T03310152  RH  034%=      5-min Rain = 0
KPD3 040115Z 13009KT 33/15 A2999 RMK A01 T03310153  RH  034%=      5-min Rain = 0
KPD3 040116Z 13009KT 33/15 A2999 RMK A01 T03300153  RH  034%=      5-min Rain = 0
KPD3 040117Z 13008KT 33/15 A2999 RMK A01 T03300153  RH  035%=      5-min Rain = 0
KPD3 040118Z 13008KT 33/16 A2999 RMK A01 T03290155  RH  035%=      5-min Rain = 0
KPD3 040119Z 13008KT 33/16 A2999 RMK A01 T03280156  RH  036%=      5-min Rain = 0
KPD3 040120Z 13009KT 33/16 A2999 RMK A01 T03260156  RH  036%=      5-min Rain = 0
KPD3 040121Z 13008KT 33/16 A2999 RMK A01 T03250156  RH  036%=      5-min Rain = 0
KPD3 040122Z 13008KT 32/16 A2999 RMK A01 T03240157  RH  037%=      5-min Rain = 0
KPD3 040123Z 13009KT 32/16 A2999 RMK A01 T03230156  RH  037%=      5-min Rain = 0
KPD3 040124Z 13010KT 32/16 A2999 RMK A01 T03230157  RH  037%=      5-min Rain = 0
KPD3 040125Z 13009KT 32/16 A2999 RMK A01 T03230157  RH  037%=      5-min Rain = 0
KPD3 040126Z 13009KT 32/16 A2999 RMK A01 T03220158  RH  037%=      5-min Rain = 0
KPD3 040127Z 13008KT 32/16 A2999 RMK A01 T03210158  RH  037%=      5-min Rain = 0
KPD3 040128Z 14008KT 32/16 A30 RMK A01 T03200157  RH  037%=      5-min Rain = 0
KPD3 040129Z 13008KT 32/16 A30 RMK A01 T03200157  RH  037%=      5-min Rain = 0
KPD3 040130Z 14008KT 32/16 A30 RMK A01 T03200157  RH  038%=      5-min Rain = 0
KPD3 040131Z 13007KT 32/16 A30 RMK A01 T03200158  RH  038%=      5-min Rain = 0
KPD3 040132Z 14009KT 32/16 A30 RMK A01 T03190158  RH  038%=      5-min Rain = 0
KPD3 040133Z 14009KT 32/16 A30 RMK A01 T03180156  RH  038%=      5-min Rain = 0
KPD3 040134Z 14008KT 32/16 A30 RMK A01 T03180157  RH  038%=      5-min Rain = 0
KPD3 040135Z 14008KT 32/16 A30 RMK A01 T03180157  RH  038%=      5-min Rain = 0
KPD3 040136Z 14008KT 32/16 A30 RMK A01 T03180157  RH  038%=      5-min Rain = 0
KPD3 040137Z 14008KT 32/16 A30 RMK A01 T03170156  RH  038%=      5-min Rain = 0
KPD3 040138Z 14008KT 32/16 A30 RMK A01 T03160156  RH  038%=      5-min Rain = 0
KPD3 040139Z 14008KT 32/16 A30 RMK A01 T03160156  RH  038%=      5-min Rain = 0
KPD3 040140Z 14007KT 32/16 A30 RMK A01 T03160157  RH  038%=      5-min Rain = 0
KPD3 040141Z 14007KT 32/16 A30 RMK A01 T03150156  RH  038%=      5-min Rain = 0
KPD3 040142Z 13008KT 31/16 A30 RMK A01 T03140156  RH  039%=      5-min Rain = 0
KPD3 040143Z 14007KT 31/16 A30 RMK A01 T03140156  RH  039%=      5-min Rain = 0
KPD3 040144Z 13007KT 31/16 A30 RMK A01 T03130156  RH  039%=      5-min Rain = 0
KPD3 040145Z 14008KT 31/16 A30 RMK A01 T03130156  RH  039%=      5-min Rain = 0
KPD3 040146Z 14008KT 31/16 A30 RMK A01 T03130156  RH  039%=      5-min Rain = 0
KPD3 040147Z 14007KT 31/16 A30 RMK A01 T03130156  RH  039%=      5-min Rain = 0
KPD3 040148Z 14007KT 31/16 A30 RMK A01 T03120157  RH  039%=      5-min Rain = 0
KPD3 040149Z 14007KT 31/16 A30 RMK A01 T03110156  RH  039%=      5-min Rain = 0
KPD3 040150Z 14007KT 31/16 A30 RMK A01 T03100156  RH  039%=      5-min Rain = 0
KPD3 040151Z 14007KT 31/16 A30 RMK A01 T03100157  RH  040%=      5-min Rain = 0
KPD3 040152Z 14007KT 31/16 A30 RMK A01 T03080156  RH  040%=      5-min Rain = 0
KPD3 040153Z 15008KT 31/16 A30 RMK A01 T03080156  RH  040%=      5-min Rain = 0
KPD3 040154Z 15008KT 31/16 A30 RMK A01 T03070156  RH  040%=      5-min Rain = 0
KPD3 040155Z 14008KT 31/16 A30 RMK A01 T03070156  RH  040%=      5-min Rain = 0
KPD3 040156Z 15007KT 31/16 A30 RMK A01 T03060156  RH  040%=      5-min Rain = 0
KPD3 040157Z 15008KT 31/16 A30 RMK A01 T03050156  RH  040%=      5-min Rain = 0
KPD3 040158Z 14007KT 31/16 A30 RMK A01 T03050156  RH  040%=      5-min Rain = 0
KPD3 040159Z 14007KT 30/16 A30 RMK A01 T03040156  RH  041%=      5-min Rain = 0
KPD3 040200Z 14007KT 30/16 A30 RMK A01 T03030155  RH  041%=      5-min Rain = 0
KPD3 040201Z 14007KT 30/16 A30 RMK A01 T03030156  RH  041%=      5-min Rain = 0
KPD3 040202Z 14007KT 30/16 A30 RMK A01 T03020155  RH  041%=      5-min Rain = 0
KPD3 040203Z 14007KT 30/16 A30 RMK A01 T03020156  RH  041%=      5-min Rain = 0
KPD3 040204Z 14007KT 30/16 A30 RMK A01 T03010156  RH  042%=      5-min Rain = 0
KPD3 040205Z 14007KT 30/16 A30 RMK A01 T03000156  RH  042%=      5-min Rain = 0
KPD3 040206Z 13006KT 30/16 A30 RMK A01 T02990156  RH  042%=      5-min Rain = 0
KPD3 040207Z 13006KT 30/16 A30 RMK A01 T02980156  RH  042%=      5-min Rain = 0
KPD3 040208Z 13006KT 30/16 A30 RMK A01 T02970157  RH  043%=      5-min Rain = 0
KPD3 040209Z 13006KT 30/16 A30 RMK A01 T02950157  RH  043%=      5-min Rain = 0
KPD3 040210Z 13006KT 29/16 A30 RMK A01 T02940157  RH  043%=      5-min Rain = 0
KPD3 040211Z 13006KT 29/16 A30 RMK A01 T02930157  RH  044%=      5-min Rain = 0
KPD3 040212Z 13006KT 29/16 A30 RMK A01 T02920157  RH  044%=      5-min Rain = 0
KPD3 040213Z 13006KT 29/16 A30 RMK A01 T02920157  RH  044%=      5-min Rain = 0
KPD3 040214Z 13006KT 29/16 A30 RMK A01 T02910156  RH  044%=      5-min Rain = 0
KPD3 040215Z 13006KT 29/16 A30 RMK A01 T02910157  RH  044%=      5-min Rain = 0
KPD3 040216Z 13006KT 29/16 A30 RMK A01 T02900158  RH  045%=      5-min Rain = 0
KPD3 040217Z 13006KT 29/16 A30 RMK A01 T02890158  RH  045%=      5-min Rain = 0
KPD3 040218Z 14006KT 29/16 A30 RMK A01 T02880157  RH  045%=      5-min Rain = 0
KPD3 040219Z 14006KT 29/16 A30 RMK A01 T02880157  RH  045%=      5-min Rain = 0
KPD3 040220Z 14006KT 29/16 A30 RMK A01 T02870157  RH  045%=      5-min Rain = 0
KPD3 040221Z 14006KT 29/16 A30 RMK A01 T02860157  RH  045%=      5-min Rain = 0
KPD3 040222Z 14006KT 29/16 A30 RMK A01 T02860156  RH  045%=      5-min Rain = 0
KPD3 040223Z 14006KT 29/16 A30 RMK A01 T02850156  RH  045%=      5-min Rain = 0
KPD3 040224Z 14006KT 28/16 A30 RMK A01 T02840155  RH  045%=      5-min Rain = 0
KPD3 040225Z 14005KT 28/16 A3001 RMK A01 T02840156  RH  046%=      5-min Rain = 0
KPD3 040226Z 14005KT 28/16 A3001 RMK A01 T02840155  RH  046%=      5-min Rain = 0
KPD3 040227Z 13005KT 28/16 A3001 RMK A01 T02830156  RH  046%=      5-min Rain = 0
KPD3 040228Z 13005KT 28/16 A3001 RMK A01 T02830157  RH  046%=      5-min Rain = 0
KPD3 040229Z 13005KT 28/16 A3001 RMK A01 T02820157  RH  047%=      5-min Rain = 0
KPD3 040230Z 13005KT 28/16 A3001 RMK A01 T02820156  RH  046%=      5-min Rain = 0
KPD3 040231Z 13004KT 28/16 A3001 RMK A01 T02810155  RH  046%=      5-min Rain = 0
KPD3 040232Z 13004KT 28/16 A3001 RMK A01 T02810156  RH  047%=      5-min Rain = 0
KPD3 040233Z 13004KT 28/16 A3001 RMK A01 T02810157  RH  047%=      5-min Rain = 0
KPD3 040234Z 12003KT 28/16 A3001 RMK A01 T02800157  RH  047%=      5-min Rain = 0
KPD3 040235Z 12003KT 28/16 A3001 RMK A01 T02790158  RH  048%=      5-min Rain = 0
KPD3 040236Z 12003KT 28/16 A3001 RMK A01 T02790159  RH  048%=      5-min Rain = 0
KPD3 040237Z 12003KT 28/16 A3001 RMK A01 T02780160  RH  049%=      5-min Rain = 0
KPD3 040238Z 12003KT 28/16 A3001 RMK A01 T02780161  RH  049%=      5-min Rain = 0
KPD3 040239Z 13003KT 28/16 A3001 RMK A01 T02770160  RH  049%=      5-min Rain = 0
KPD3 040240Z 13003KT 28/16 A3001 RMK A01 T02770161  RH  049%=      5-min Rain = 0
KPD3 040241Z 13003KT 28/16 A3002 RMK A01 T02770162  RH  049%=      5-min Rain = 0
KPD3 040242Z 13003KT 28/16 A3002 RMK A01 T02770163  RH  050%=      5-min Rain = 0
KPD3 040243Z 13002KT 28/16 A3002 RMK A01 T02770164  RH  050%=      5-min Rain = 0
KPD3 040244Z 13002KT 28/17 A3002 RMK A01 T02760171  RH  053%=      5-min Rain = 0
KPD3 040245Z 12002KT 27/17 A3002 RMK A01 T02740172  RH  054%=      5-min Rain = 0
KPD3 040246Z 12002KT 27/17 A3002 RMK A01 T02730169  RH  053%=      5-min Rain = 0
KPD3 040247Z 11002KT 27/17 A3002 RMK A01 T02730174  RH  055%=      5-min Rain = 0
KPD3 040248Z 11002KT 27/17 A3002 RMK A01 T02720171  RH  054%=      5-min Rain = 0
KPD3 040249Z 10002KT 27/17 A3002 RMK A01 T02720172  RH  054%=      5-min Rain = 0
KPD3 040250Z 10002KT 27/18 A3002 RMK A01 T02710175  RH  056%=      5-min Rain = 0
KPD3 040251Z 09002KT 27/18 A3002 RMK A01 T02690176  RH  057%=      5-min Rain = 0
KPD3 040252Z 09002KT 27/17 A3002 RMK A01 T02680174  RH  056%=      5-min Rain = 0
KPD3 040253Z 10002KT 27/17 A3003 RMK A01 T02680174  RH  056%=      5-min Rain = 0
KPD3 040254Z 10002KT 27/17 A3003 RMK A01 T02680172  RH  056%=      5-min Rain = 0
KPD3 040255Z 11002KT 27/17 A3003 RMK A01 T02680173  RH  056%=      5-min Rain = 0
KPD3 040256Z 11002KT 27/18 A3003 RMK A01 T02680176  RH  057%=      5-min Rain = 0
KPD3 040257Z 11002KT 27/18 A3003 RMK A01 T02670176  RH  057%=      5-min Rain = 0
KPD3 040258Z 11002KT 27/18 A3003 RMK A01 T02670177  RH  058%=      5-min Rain = 0
KPD3 040259Z 11002KT 27/18 A3003 RMK A01 T02660176  RH  057%=      5-min Rain = 0
KPD3 040300Z 11003KT 27/17 A3003 RMK A01 T02660172  RH  056%=      5-min Rain = 0
KPD3 040301Z 11002KT 27/17 A3003 RMK A01 T02670168  RH  055%=      5-min Rain = 0
KPD3 040302Z 11003KT 27/17 A3003 RMK A01 T02680172  RH  056%=      5-min Rain = 0
KPD3 040303Z 11002KT 27/17 A3003 RMK A01 T02680170  RH  055%=      5-min Rain = 0
KPD3 040304Z 11002KT 27/17 A3003 RMK A01 T02690171  RH  055%=      5-min Rain = 0
KPD3 040305Z 12002KT 27/17 A3003 RMK A01 T02690171  RH  055%=      5-min Rain = 0
KPD3 040306Z 12002KT 27/17 A3003 RMK A01 T02700168  RH  054%=      5-min Rain = 0
KPD3 040307Z 12002KT 27/17 A3003 RMK A01 T02700167  RH  053%=      5-min Rain = 0
KPD3 040308Z 12002KT 27/17 A3003 RMK A01 T02700165  RH  052%=      5-min Rain = 0
KPD3 040309Z 12002KT 27/17 A3003 RMK A01 T02710166  RH  053%=      5-min Rain = 0
KPD3 040310Z 12002KT 27/17 A3003 RMK A01 T02710166  RH  053%=      5-min Rain = 0
KPD3 040311Z 13002KT 27/17 A3004 RMK A01 T02720166  RH  052%=      5-min Rain = 0
KPD3 040312Z 13002KT 27/17 A3004 RMK A01 T02720169  RH  053%=      5-min Rain = 0
KPD3 040313Z 13002KT 27/17 A3004 RMK A01 T02730167  RH  052%=      5-min Rain = 0
KPD3 040314Z 12002KT 27/16 A3004 RMK A01 T02730164  RH  051%=      5-min Rain = 0
KPD3 040315Z 13002KT 27/16 A3004 RMK A01 T02740164  RH  051%=      5-min Rain = 0
KPD3 040316Z 13003KT 27/16 A3004 RMK A01 T02740163  RH  051%=      5-min Rain = 0
KPD3 040317Z 13002KT 27/17 A3004 RMK A01 T02740165  RH  051%=      5-min Rain = 0
KPD3 040318Z 14002KT 27/16 A3004 RMK A01 T02740163  RH  051%=      5-min Rain = 0
KPD3 040319Z 14002KT 28/16 A3004 RMK A01 T02750163  RH  050%=      5-min Rain = 0
KPD3 040320Z 13002KT 28/16 A3004 RMK A01 T02760164  RH  050%=      5-min Rain = 0
KPD3 040321Z 14002KT 28/16 A3004 RMK A01 T02770162  RH  050%=      5-min Rain = 0
KPD3 040322Z 14002KT 28/16 A3004 RMK A01 T02780163  RH  050%=      5-min Rain = 0
KPD3 040323Z 14002KT 28/16 A3004 RMK A01 T02780160  RH  049%=      5-min Rain = 0
KPD3 040324Z 15002KT 28/16 A3004 RMK A01 T02780161  RH  049%=      5-min Rain = 0
KPD3 040325Z 15001KT 28/17 A3004 RMK A01 T02790169  RH  051%=      5-min Rain = 0
KPD3 040326Z 15001KT 28/17 A3004 RMK A01 T02790166  RH  050%=      5-min Rain = 0
KPD3 040327Z 15001KT 28/16 A3004 RMK A01 T02790163  RH  049%=      5-min Rain = 0
KPD3 040328Z 14001KT 28/17 A3004 RMK A01 T02790168  RH  051%=      5-min Rain = 0
KPD3 040329Z 14001KT 28/17 A3004 RMK A01 T02790165  RH  050%=      5-min Rain = 0
KPD3 040330Z 12000KT 28/16 A3004 RMK A01 T02790164  RH  050%=      5-min Rain = 0
KPD3 040331Z 13000KT 28/17 A3005 RMK A01 T02790165  RH  050%=      5-min Rain = 0
KPD3 040332Z 12000KT 28/17 A3005 RMK A01 T02790172  RH  052%=      5-min Rain = 0
KPD3 040333Z 12001KT 28/17 A3005 RMK A01 T02780166  RH  050%=      5-min Rain = 0
KPD3 040334Z 10000KT 28/17 A3005 RMK A01 T02780171  RH  052%=      5-min Rain = 0
KPD3 040335Z 10001KT 28/17 A3005 RMK A01 T02770170  RH  052%=      5-min Rain = 0
KPD3 040336Z 10000KT 28/18 A3005 RMK A01 T02750183  RH  057%=      5-min Rain = 0
KPD3 040337Z 10001KT 27/18 A3005 RMK A01 T02720182  RH  058%=      5-min Rain = 0
KPD3 040338Z 09001KT 27/17 A3005 RMK A01 T02700174  RH  056%=      5-min Rain = 0
KPD3 040339Z 09001KT 27/17 A3005 RMK A01 T02700171  RH  055%=      5-min Rain = 0
KPD3 040340Z 10001KT 27/18 A3005 RMK A01 T02710176  RH  056%=      5-min Rain = 0
KPD3 040341Z 07000KT 27/19 A3005 RMK A01 T02700187  RH  060%=      5-min Rain = 0
KPD3 040342Z 00000KT 27/19 A3005 RMK A01 T02680185  RH  060%=      5-min Rain = 0
KPD3 040343Z 09000KT 27/18 A3005 RMK A01 T02660175  RH  057%=      5-min Rain = 0
KPD3 040344Z 10001KT 27/18 A3005 RMK A01 T02660180  RH  059%=      5-min Rain = 0
KPD3 040345Z 11000KT 27/18 A3005 RMK A01 T02670178  RH  058%=      5-min Rain = 0
KPD3 040346Z 00000KT 27/18 A3005 RMK A01 T02670178  RH  058%=      5-min Rain = 0
KPD3 040347Z 11000KT 27/17 A3005 RMK A01 T02670170  RH  055%=      5-min Rain = 0
KPD3 040348Z 10001KT 27/17 A3005 RMK A01 T02690167  RH  054%=      5-min Rain = 0
KPD3 040349Z 11001KT 27/17 A3005 RMK A01 T02710169  RH  054%=      5-min Rain = 0
KPD3 040350Z 12002KT 27/17 A3005 RMK A01 T02710168  RH  053%=      5-min Rain = 0
KPD3 040351Z 13001KT 27/18 A3005 RMK A01 T02720180  RH  057%=      5-min Rain = 0
KPD3 040352Z 11002KT 27/17 A3005 RMK A01 T02720167  RH  053%=      5-min Rain = 0
KPD3 040353Z 12001KT 27/17 A3005 RMK A01 T02720168  RH  053%=      5-min Rain = 0
KPD3 040354Z 12002KT 27/17 A3005 RMK A01 T02720169  RH  053%=      5-min Rain = 0
KPD3 040355Z 12002KT 27/16 A3005 RMK A01 T02720161  RH  051%=      5-min Rain = 0
KPD3 040356Z 12002KT 27/17 A3005 RMK A01 T02730167  RH  052%=      5-min Rain = 0
KPD3 040357Z 12002KT 27/17 A3005 RMK A01 T02730170  RH  053%=      5-min Rain = 0
KPD3 040358Z 12002KT 27/17 A3005 RMK A01 T02730167  RH  053%=      5-min Rain = 0
KPD3 040359Z 12002KT 27/17 A3006 RMK A01 T02730166  RH  052%=      5-min Rain = 0
KPD3 040400Z 12002KT 27/16 A3006 RMK A01 T02730162  RH  051%=      5-min Rain = 0
KPD3 040401Z 12002KT 27/16 A3006 RMK A01 T02740162  RH  051%=      5-min Rain = 0
KPD3 040402Z 12002KT 28/16 A3005 RMK A01 T02750163  RH  050%=      5-min Rain = 0
KPD3 040403Z 12003KT 28/16 A3005 RMK A01 T02760164  RH  050%=      5-min Rain = 0
KPD3 040404Z 12002KT 28/16 A3005 RMK A01 T02770162  RH  050%=      5-min Rain = 0
KPD3 040405Z 13002KT 28/16 A3005 RMK A01 T02770163  RH  050%=      5-min Rain = 0
KPD3 040406Z 12003KT 28/16 A3005 RMK A01 T02780161  RH  049%=      5-min Rain = 0
KPD3 040407Z 12003KT 28/16 A3005 RMK A01 T02790162  RH  049%=      5-min Rain = 0
KPD3 040408Z 12003KT 28/16 A3005 RMK A01 T02790164  RH  050%=      5-min Rain = 0
KPD3 040409Z 12003KT 28/16 A3005 RMK A01 T02790164  RH  050%=      5-min Rain = 0
KPD3 040410Z 12004KT 28/16 A3005 RMK A01 T02790164  RH  050%=      5-min Rain = 0
KPD3 040411Z 12004KT 28/17 A3005 RMK A01 T02780165  RH  050%=      5-min Rain = 0
KPD3 040412Z 12004KT 28/17 A3005 RMK A01 T02770165  RH  050%=      5-min Rain = 0
KPD3 040413Z 12004KT 28/16 A3005 RMK A01 T02770164  RH  050%=      5-min Rain = 0
KPD3 040414Z 12005KT 28/16 A3005 RMK A01 T02760164  RH  051%=      5-min Rain = 0
KPD3 040415Z 12005KT 28/17 A3005 RMK A01 T02750165  RH  051%=      5-min Rain = 0
KPD3 040416Z 13004KT 27/17 A3005 RMK A01 T02740165  RH  052%=      5-min Rain = 0
KPD3 040417Z 13004KT 27/17 A3005 RMK A01 T02730165  RH  052%=      5-min Rain = 0
KPD3 040418Z 13004KT 27/17 A3005 RMK A01 T02720166  RH  052%=      5-min Rain = 0
KPD3 040419Z 13004KT 27/17 A3005 RMK A01 T02710166  RH  053%=      5-min Rain = 0
KPD3 040420Z 13004KT 27/17 A3005 RMK A01 T02700165  RH  052%=      5-min Rain = 0
KPD3 040421Z 13004KT 27/17 A3005 RMK A01 T02700165  RH  053%=      5-min Rain = 0
KPD3 040422Z 13004KT 27/17 A3005 RMK A01 T02700165  RH  053%=      5-min Rain = 0
KPD3 040423Z 13004KT 27/17 A3005 RMK A01 T02700165  RH  053%=      5-min Rain = 0
KPD3 040424Z 14004KT 27/17 A3005 RMK A01 T02690165  RH  053%=      5-min Rain = 0
KPD3 040425Z 14004KT 27/17 A3005 RMK A01 T02690166  RH  053%=      5-min Rain = 0
KPD3 040426Z 14004KT 27/17 A3005 RMK A01 T02690165  RH  053%=      5-min Rain = 0
KPD3 040427Z 13004KT 27/17 A3005 RMK A01 T02690165  RH  053%=      5-min Rain = 0
KPD3 040428Z 13004KT 27/16 A3005 RMK A01 T02690164  RH  053%=      5-min Rain = 0
KPD3 040429Z 13004KT 27/17 A3005 RMK A01 T02690165  RH  053%=      5-min Rain = 0
KPD3 040430Z 14003KT 27/17 A3005 RMK A01 T02680165  RH  053%=      5-min Rain = 0
KPD3 040431Z 14003KT 27/17 A3005 RMK A01 T02680165  RH  053%=      5-min Rain = 0
KPD3 040432Z 14003KT 27/16 A3005 RMK A01 T02680164  RH  053%=      5-min Rain = 0
KPD3 040433Z 14003KT 27/16 A3005 RMK A01 T02680164  RH  053%=      5-min Rain = 0
KPD3 040434Z 13003KT 27/16 A3005 RMK A01 T02670164  RH  053%=      5-min Rain = 0
KPD3 040435Z 13003KT 27/16 A3005 RMK A01 T02680164  RH  053%=      5-min Rain = 0
KPD3 040436Z 13003KT 27/17 A3005 RMK A01 T02670165  RH  053%=      5-min Rain = 0
KPD3 040437Z 13002KT 27/17 A3005 RMK A01 T02670166  RH  054%=      5-min Rain = 0
KPD3 040438Z 13003KT 27/16 A3005 RMK A01 T02670163  RH  053%=      5-min Rain = 0
KPD3 040439Z 13002KT 27/16 A3005 RMK A01 T02670164  RH  053%=      5-min Rain = 0
KPD3 040440Z 13002KT 27/17 A3005 RMK A01 T02670165  RH  053%=      5-min Rain = 0
KPD3 040441Z 13002KT 27/17 A3005 RMK A01 T02660165  RH  054%=      5-min Rain = 0
KPD3 040442Z 12001KT 27/17 A3005 RMK A01 T02660166  RH  054%=      5-min Rain = 0
KPD3 040443Z 11001KT 27/17 A3005 RMK A01 T02660167  RH  055%=      5-min Rain = 0
KPD3 040444Z 11001KT 27/17 A3005 RMK A01 T02650170  RH  056%=      5-min Rain = 0
KPD3 040445Z 09001KT 26/18 A3005 RMK A01 T02630176  RH  059%=      5-min Rain = 0
KPD3 040446Z 11000KT 26/18 A3005 RMK A01 T02600180  RH  062%=      5-min Rain = 0
KPD3 040447Z 00000KT 26/18 A3005 RMK A01 T02560183  RH  064%=      5-min Rain = 0
KPD3 040448Z 00000KT 25/18 A3005 RMK A01 T02520183  RH  065%=      5-min Rain = 0
KPD3 040449Z 01000KT 25/18 A3006 RMK A01 T02500181  RH  066%=      5-min Rain = 0
KPD3 040450Z 03000KT 25/18 A3006 RMK A01 T02480181  RH  066%=      5-min Rain = 0
KPD3 040451Z 03000KT 25/18 A3006 RMK A01 T02470182  RH  067%=      5-min Rain = 0
KPD3 040452Z 36001KT 25/18 A3006 RMK A01 T02460183  RH  068%=      5-min Rain = 0
KPD3 040453Z 36001KT 25/18 A3006 RMK A01 T02450183  RH  069%=      5-min Rain = 0
KPD3 040454Z 36001KT 24/18 A3006 RMK A01 T02440183  RH  069%=      5-min Rain = 0
KPD3 040455Z 36001KT 24/19 A3006 RMK A01 T02430185  RH  070%=      5-min Rain = 0
KPD3 040456Z 00001KT 24/19 A3006 RMK A01 T02420185  RH  070%=      5-min Rain = 0
KPD3 040457Z 35001KT 24/18 A3006 RMK A01 T02420184  RH  070%=      5-min Rain = 0
KPD3 040458Z 34001KT 24/18 A3006 RMK A01 T02420182  RH  069%=      5-min Rain = 0
KPD3 040459Z 34001KT 24/18 A3006 RMK A01 T02430183  RH  069%=      5-min Rain = 0

Page generated in 0.0694 seconds.